Observation data for Big Lake on 02/23/2019      Previous  Date  Next       Current Mesonet Observations  Soil Data  Daily Summary Page  Observations in Plain Language
KBI1 230600Z 17017G22KT 14/12 A2975 RMK A01 T01410116  RH  085%=      5-min Rain = 0
KBI1 230601Z 17020G25KT 14/12 A2975 RMK A01 T01420116  RH  085%=      5-min Rain = 0
KBI1 230602Z 17018KT 14/12 A2975 RMK A01 T01420117  RH  085%=      5-min Rain = 0
KBI1 230603Z 17018KT 14/12 A2975 RMK A01 T01420116  RH  085%=      5-min Rain = 0
KBI1 230604Z 17020G25KT 14/12 A2975 RMK A01 T01420117  RH  085%=      5-min Rain = 0
KBI1 230605Z 17019KT 14/12 A2975 RMK A01 T01430117  RH  085%=      5-min Rain = 0
KBI1 230606Z 17017KT 14/12 A2975 RMK A01 T01430117  RH  085%=      5-min Rain = 0
KBI1 230607Z 16021KT 14/12 A2975 RMK A01 T01430117  RH  084%=      5-min Rain = 0
KBI1 230608Z 17021KT 14/12 A2975 RMK A01 T01430118  RH  085%=      5-min Rain = 0
KBI1 230609Z 17018G24KT 14/12 A2975 RMK A01 T01440118  RH  084%=      5-min Rain = 0
KBI1 230610Z 17022G27KT 14/12 A2974 RMK A01 T01440118  RH  084%=      5-min Rain = 0
KBI1 230611Z 17022KT 14/12 A2974 RMK A01 T01440118  RH  084%=      5-min Rain = 0
KBI1 230612Z 16018G26KT 15/12 A2974 RMK A01 T01450118  RH  084%=      5-min Rain = 0
KBI1 230613Z 17021KT 15/12 A2974 RMK A01 T01450118  RH  084%=      5-min Rain = 0
KBI1 230614Z 17019G24KT 15/12 A2974 RMK A01 T01450119  RH  084%=      5-min Rain = 0
KBI1 230615Z 17022G28KT 15/12 A2974 RMK A01 T01450119  RH  084%=      5-min Rain = 0
KBI1 230616Z 17019KT 15/12 A2974 RMK A01 T01460119  RH  084%=      5-min Rain = 0
KBI1 230617Z 17019G24KT 15/12 A2974 RMK A01 T01460119  RH  084%=      5-min Rain = 0
KBI1 230618Z 17022KT 15/12 A2974 RMK A01 T01460119  RH  084%=      5-min Rain = 0
KBI1 230619Z 17020G25KT 15/12 A2974 RMK A01 T01460120  RH  084%=      5-min Rain = 0
KBI1 230620Z 17018G23KT 15/12 A2974 RMK A01 T01460120  RH  084%=      5-min Rain = 0
KBI1 230621Z 17021G26KT 15/12 A2974 RMK A01 T01460120  RH  084%=      5-min Rain = 0
KBI1 230622Z 17024G31KT 15/12 A2974 RMK A01 T01470120  RH  084%=      5-min Rain = 0
KBI1 230623Z 18023G30KT 15/12 A2974 RMK A01 T01470120  RH  084%=      5-min Rain = 0
KBI1 230624Z 17024G30KT 15/12 A2974 RMK A01 T01470121  RH  084%=      5-min Rain = 0
KBI1 230625Z 17024G31KT 15/12 A2974 RMK A01 T01480121  RH  084%=      5-min Rain = 0
KBI1 230626Z 17026G33KT 15/12 A2974 RMK A01 T01480121  RH  084%=      5-min Rain = 0
KBI1 230627Z 17025KT 15/12 A2974 RMK A01 T01490121  RH  084%=      5-min Rain = 0
KBI1 230628Z 17023G29KT 15/12 A2974 RMK A01 T01490121  RH  084%=      5-min Rain = 0
KBI1 230629Z 17019G26KT 15/12 A2974 RMK A01 T01490121  RH  084%=      5-min Rain = 0
KBI1 230630Z 17025G32KT 15/12 A2974 RMK A01 T01490121  RH  084%=      5-min Rain = 0
KBI1 230631Z 18026G32KT 15/12 A2974 RMK A01 T01490121  RH  084%=      5-min Rain = 0
KBI1 230632Z 18023G31KT 15/12 A2974 RMK A01 T01490122  RH  084%=      5-min Rain = 0
KBI1 230633Z 18017G22KT 15/12 A2974 RMK A01 T01490122  RH  083%=      5-min Rain = 0
KBI1 230634Z 18020G27KT 15/12 A2974 RMK A01 T01490121  RH  084%=      5-min Rain = 0
KBI1 230635Z 17026KT 15/12 A2975 RMK A01 T01490122  RH  084%=      5-min Rain = 0
KBI1 230636Z 18021KT 15/12 A2975 RMK A01 T01490122  RH  084%=      5-min Rain = 0
KBI1 230637Z 18022G27KT 15/12 A2974 RMK A01 T01490122  RH  084%=      5-min Rain = 0
KBI1 230638Z 18025G31KT 15/12 A2974 RMK A01 T01490122  RH  084%=      5-min Rain = 0
KBI1 230639Z 18023G28KT 15/12 A2975 RMK A01 T01490122  RH  084%=      5-min Rain = 0
KBI1 230640Z 18024KT 15/12 A2975 RMK A01 T01500122  RH  083%=      5-min Rain = 0
KBI1 230641Z 18024G29KT 15/12 A2975 RMK A01 T01490121  RH  083%=      5-min Rain = 0
KBI1 230642Z 18022G28KT 15/12 A2974 RMK A01 T01490122  RH  084%=      5-min Rain = 0
KBI1 230643Z 18021G27KT 15/12 A2974 RMK A01 T01490122  RH  083%=      5-min Rain = 0
KBI1 230644Z 17025KT 15/12 A2975 RMK A01 T01490122  RH  084%=      5-min Rain = 0
KBI1 230645Z 18026G33KT 15/12 A2974 RMK A01 T01490122  RH  084%=      5-min Rain = 0
KBI1 230646Z 18023G30KT 15/12 A2975 RMK A01 T01490122  RH  084%=      5-min Rain = 0
KBI1 230647Z 18024G30KT 15/12 A2975 RMK A01 T01490122  RH  084%=      5-min Rain = 0
KBI1 230648Z 18021KT 15/12 A2975 RMK A01 T01490122  RH  084%=      5-min Rain = 0
KBI1 230649Z 17020G26KT 15/12 A2975 RMK A01 T01490122  RH  084%=      5-min Rain = 0
KBI1 230650Z 18020KT 15/12 A2975 RMK A01 T01490122  RH  084%=      5-min Rain = 0
KBI1 230651Z 18020KT 15/12 A2975 RMK A01 T01480122  RH  084%=      5-min Rain = 0
KBI1 230652Z 18019KT 15/12 A2975 RMK A01 T01480122  RH  085%=      5-min Rain = 0
KBI1 230653Z 18020G27KT 15/12 A2975 RMK A01 T01480122  RH  085%=      5-min Rain = 0
KBI1 230654Z 18021G26KT 15/12 A2976 RMK A01 T01480122  RH  084%=      5-min Rain = 0
KBI1 230655Z 18019G24KT 15/12 A2976 RMK A01 T01480122  RH  084%=      5-min Rain = 0
KBI1 230656Z 19019KT 15/12 A2977 RMK A01 T01480122  RH  084%=      5-min Rain = 0
KBI1 230657Z 19021KT 15/12 A2977 RMK A01 T01480122  RH  084%=      5-min Rain = 0
KBI1 230658Z 19018G24KT 15/12 A2977 RMK A01 T01490123  RH  085%=      5-min Rain = 0
KBI1 230659Z 20020G25KT 15/12 A2978 RMK A01 T01490123  RH  084%=      5-min Rain = 0
KBI1 230700Z 22019G24KT 15/12 A298 RMK A01 T01490123  RH  084%=      5-min Rain = 0
KBI1 230701Z 24021G26KT 15/12 A2982 RMK A01 T01500123  RH  084%=      5-min Rain = 0
KBI1 230702Z 25022KT 15/12 A2983 RMK A01 T01500123  RH  084%=      5-min Rain = 0
KBI1 230703Z 25019G28KT 15/12 A2983 RMK A01 T01510122  RH  083%=      5-min Rain = 0
KBI1 230704Z 27020G27KT 15/11 A2984 RMK A01 T01500111  RH  077%=      5-min Rain = 0
KBI1 230705Z 27017G22KT 15/10 A2984 RMK A01 T01490098  RH  071%=      5-min Rain = 0
KBI1 230706Z 29021G27KT 15/07 A2984 RMK A01 T01450069  RH  061%=      5-min Rain = 0
KBI1 230707Z 29022KT 14/05 A2984 RMK A01 T01360047  RH  055%=      5-min Rain = 0
KBI1 230708Z 29021G26KT 13/04 A2984 RMK A01 T01300044  RH  056%=      5-min Rain = 0
KBI1 230709Z 28021KT 12/05 A2985 RMK A01 T01240048  RH  060%=      5-min Rain = 0
KBI1 230710Z 29020G25KT 12/05 A2986 RMK A01 T01170049  RH  063%=      5-min Rain = 0
KBI1 230711Z 28018G23KT 11/05 A2986 RMK A01 T01140047  RH  063%=      5-min Rain = 0
KBI1 230712Z 29017G23KT 11/05 A2986 RMK A01 T01120048  RH  065%=      5-min Rain = 0
KBI1 230713Z 29022G27KT 11/05 A2986 RMK A01 T01100046  RH  065%=      5-min Rain = 0
KBI1 230714Z 29020KT 11/04 A2985 RMK A01 T01090043  RH  064%=      5-min Rain = 0
KBI1 230715Z 29021KT 11/04 A2986 RMK A01 T01100044  RH  064%=      5-min Rain = 0
KBI1 230716Z 29020KT 11/04 A2986 RMK A01 T01090042  RH  063%=      5-min Rain = 0
KBI1 230717Z 29022KT 11/04 A2986 RMK A01 T01080042  RH  064%=      5-min Rain = 0.01
KBI1 230718Z 29019G25KT 11/04 A2986 RMK A01 T01080040  RH  063%=      5-min Rain = 0
KBI1 230719Z 29016G21KT 11/04 A2986 RMK A01 T01070040  RH  063%=      5-min Rain = 0
KBI1 230720Z 28022G28KT 11/04 A2986 RMK A01 T01060041  RH  064%=      5-min Rain = 0
KBI1 230721Z 28023KT 11/04 A2986 RMK A01 T01050035  RH  062%=      5-min Rain = 0
KBI1 230722Z 28021G26KT 10/03 A2987 RMK A01 T01040034  RH  062%=      5-min Rain = 0
KBI1 230723Z 28021KT 10/04 A2986 RMK A01 T01030035  RH  063%=      5-min Rain = 0
KBI1 230724Z 28021KT 10/04 A2986 RMK A01 T01020035  RH  063%=      5-min Rain = 0
KBI1 230725Z 27020KT 10/04 A2987 RMK A01 T01000037  RH  065%=      5-min Rain = 0
KBI1 230726Z 27018G24KT 10/04 A2987 RMK A01 T00980035  RH  065%=      5-min Rain = 0
KBI1 230727Z 27019G27KT 10/03 A2987 RMK A01 T00980033  RH  064%=      5-min Rain = 0
KBI1 230728Z 27019KT 10/03 A2987 RMK A01 T00980031  RH  063%=      5-min Rain = 0
KBI1 230729Z 27020G26KT 10/03 A2987 RMK A01 T00980030  RH  063%=      5-min Rain = 0
KBI1 230730Z 28022G27KT 10/03 A2987 RMK A01 T00990025  RH  060%=      5-min Rain = 0
KBI1 230731Z 27018G23KT 10/03 A2987 RMK A01 T00990027  RH  061%=      5-min Rain = 0
KBI1 230732Z 27020G25KT 10/03 A2987 RMK A01 T00980025  RH  060%=      5-min Rain = 0
KBI1 230733Z 27018KT 10/03 A2987 RMK A01 T00980025  RH  060%=      5-min Rain = 0
KBI1 230734Z 27018G26KT 10/02 A2988 RMK A01 T00980024  RH  060%=      5-min Rain = 0
KBI1 230735Z 28020G25KT 10/02 A2988 RMK A01 T00970021  RH  059%=      5-min Rain = 0
KBI1 230736Z 27018KT 10/02 A2988 RMK A01 T00970021  RH  059%=      5-min Rain = 0
KBI1 230737Z 28019G24KT 10/02 A2988 RMK A01 T00970020  RH  059%=      5-min Rain = 0
KBI1 230738Z 28015KT 10/02 A2988 RMK A01 T00970020  RH  059%=      5-min Rain = 0
KBI1 230739Z 28016G22KT 10/02 A2988 RMK A01 T00950021  RH  060%=      5-min Rain = 0
KBI1 230740Z 28018KT 10/02 A2988 RMK A01 T00950019  RH  059%=      5-min Rain = 0
KBI1 230741Z 28014KT 10/02 A2988 RMK A01 T00950019  RH  059%=      5-min Rain = 0
KBI1 230742Z 27017G22KT 10/02 A2988 RMK A01 T00950019  RH  059%=      5-min Rain = 0
KBI1 230743Z 28018G23KT 10/02 A2987 RMK A01 T00950019  RH  059%=      5-min Rain = 0
KBI1 230744Z 28017KT 09/02 A2988 RMK A01 T00940017  RH  059%=      5-min Rain = 0
KBI1 230745Z 28017KT 09/02 A2988 RMK A01 T00940017  RH  059%=      5-min Rain = 0
KBI1 230746Z 28018KT 09/02 A2988 RMK A01 T00930017  RH  059%=      5-min Rain = 0
KBI1 230747Z 29017KT 09/02 A2988 RMK A01 T00930016  RH  059%=      5-min Rain = 0
KBI1 230748Z 29016KT 09/02 A2988 RMK A01 T00920018  RH  060%=      5-min Rain = 0
KBI1 230749Z 28019G26KT 09/02 A2988 RMK A01 T00920016  RH  059%=      5-min Rain = 0
KBI1 230750Z 28018G26KT 09/02 A2988 RMK A01 T00920015  RH  059%=      5-min Rain = 0
KBI1 230751Z 28024KT 09/01 A2988 RMK A01 T00920013  RH  058%=      5-min Rain = 0
KBI1 230752Z 28021G28KT 09/01 A2989 RMK A01 T00930011  RH  057%=      5-min Rain = 0
KBI1 230753Z 28020G25KT 09/01 A2989 RMK A01 T00930012  RH  057%=      5-min Rain = 0
KBI1 230754Z 28021G26KT 09/01 A2989 RMK A01 T00930010  RH  056%=      5-min Rain = 0
KBI1 230755Z 28022G27KT 09/01 A2989 RMK A01 T00930010  RH  056%=      5-min Rain = 0
KBI1 230756Z 28018KT 09/01 A2989 RMK A01 T00920010  RH  056%=      5-min Rain = 0
KBI1 230757Z 28020G25KT 09/01 A2989 RMK A01 T00920010  RH  056%=      5-min Rain = 0
KBI1 230758Z 28018G23KT 09/01 A299 RMK A01 T00910011  RH  057%=      5-min Rain = 0
KBI1 230759Z 28019KT 09/01 A299 RMK A01 T00900011  RH  058%=      5-min Rain = 0
KBI1 230800Z 28017KT 09/01 A299 RMK A01 T00900010  RH  058%=      5-min Rain = 0
KBI1 230801Z 28021KT 09/01 A299 RMK A01 T00900010  RH  057%=      5-min Rain = 0
KBI1 230802Z 28019KT 09/01 A299 RMK A01 T00900009  RH  057%=      5-min Rain = 0
KBI1 230803Z 28016KT 09/01 A299 RMK A01 T00900008  RH  056%=      5-min Rain = 0
KBI1 230804Z 28015G21KT 09/01 A299 RMK A01 T00900009  RH  057%=      5-min Rain = 0
KBI1 230805Z 28019KT 09/01 A299 RMK A01 T00890007  RH  056%=      5-min Rain = 0
KBI1 230806Z 29021G26KT 09/01 A299 RMK A01 T00890005  RH  056%=      5-min Rain = 0
KBI1 230807Z 29019G25KT 09/01 A299 RMK A01 T00900005  RH  055%=      5-min Rain = 0
KBI1 230808Z 28020KT 09/01 A299 RMK A01 T00900006  RH  056%=      5-min Rain = 0
KBI1 230809Z 28017KT 09/00 A299 RMK A01 T00890004  RH  055%=      5-min Rain = 0
KBI1 230810Z 29015KT 09/01 A299 RMK A01 T00890005  RH  056%=      5-min Rain = 0
KBI1 230811Z 29019G26KT 09/01 A299 RMK A01 T00880006  RH  057%=      5-min Rain = 0
KBI1 230812Z 28017G23KT 09/00 A299 RMK A01 T00880004  RH  056%=      5-min Rain = 0
KBI1 230813Z 28017KT 09/01 A299 RMK A01 T00880005  RH  056%=      5-min Rain = 0
KBI1 230814Z 29018KT 09/01 A299 RMK A01 T00870005  RH  056%=      5-min Rain = 0
KBI1 230815Z 29022KT 09/00 A299 RMK A01 T00870004  RH  056%=      5-min Rain = 0
KBI1 230816Z 28020KT 09/00 A299 RMK A01 T00870004  RH  056%=      5-min Rain = 0
KBI1 230817Z 29022KT 09/00 A299 RMK A01 T00870003  RH  056%=      5-min Rain = 0
KBI1 230818Z 28021KT 09/00 A299 RMK A01 T00870003  RH  056%=      5-min Rain = 0
KBI1 230819Z 29021G27KT 09/00 A299 RMK A01 T00870002  RH  055%=      5-min Rain = 0
KBI1 230820Z 28020KT 09/00 A299 RMK A01 T00870002  RH  055%=      5-min Rain = 0
KBI1 230821Z 28021G26KT 09/00 A299 RMK A01 T00880002  RH  055%=      5-min Rain = 0
KBI1 230822Z 28018KT 09/00 A299 RMK A01 T00870002  RH  055%=      5-min Rain = 0
KBI1 230823Z 28019G26KT 09/00 A299 RMK A01 T00860003  RH  056%=      5-min Rain = 0
KBI1 230824Z 28021G26KT 09/00 A299 RMK A01 T00850002  RH  056%=      5-min Rain = 0
KBI1 230825Z 28019G24KT 09/00 A299 RMK A01 T00860001  RH  055%=      5-min Rain = 0
KBI1 230826Z 28020G26KT 09/00 A299 RMK A01 T00850002  RH  056%=      5-min Rain = 0
KBI1 230827Z 28022G28KT 09/00 A299 RMK A01 T00850001  RH  055%=      5-min Rain = 0
KBI1 230828Z 28017G23KT 09/00 A299 RMK A01 T00850001  RH  055%=      5-min Rain = 0
KBI1 230829Z 28020KT 09/00 A299 RMK A01 T00850001  RH  055%=      5-min Rain = 0
KBI1 230830Z 28020G27KT 09/00 A299 RMK A01 T008500-0  RH  055%=      5-min Rain = 0
KBI1 230831Z 28020KT 09/00 A299 RMK A01 T008500-0  RH  055%=      5-min Rain = 0
KBI1 230832Z 28019G25KT 09/00 A299 RMK A01 T00850000  RH  055%=      5-min Rain = 0
KBI1 230833Z 28023KT 08/00 A299 RMK A01 T00840000  RH  055%=      5-min Rain = 0
KBI1 230834Z 28019G26KT 08/00 A299 RMK A01 T008400-0  RH  055%=      5-min Rain = 0
KBI1 230835Z 28021G27KT 08/M00 A299 RMK A01 T00841001  RH  055%=      5-min Rain = 0
KBI1 230836Z 28023G31KT 08/M00 A299 RMK A01 T00841002  RH  055%=      5-min Rain = 0
KBI1 230837Z 28019G24KT 08/M00 A299 RMK A01 T00841001  RH  055%=      5-min Rain = 0
KBI1 230838Z 28018KT 08/00 A299 RMK A01 T008300-0  RH  056%=      5-min Rain = 0
KBI1 230839Z 28019KT 08/00 A299 RMK A01 T008300-0  RH  056%=      5-min Rain = 0
KBI1 230840Z 28020G25KT 08/M00 A299 RMK A01 T00821001  RH  056%=      5-min Rain = 0
KBI1 230841Z 28022KT 08/M00 A299 RMK A01 T00821001  RH  056%=      5-min Rain = 0
KBI1 230842Z 28018KT 08/M00 A299 RMK A01 T00821001  RH  056%=      5-min Rain = 0
KBI1 230843Z 28016KT 08/M00 A299 RMK A01 T00811001  RH  056%=      5-min Rain = 0
KBI1 230844Z 28019KT 08/M00 A299 RMK A01 T00811001  RH  056%=      5-min Rain = 0
KBI1 230845Z 28018G24KT 08/M00 A299 RMK A01 T00811001  RH  056%=      5-min Rain = 0
KBI1 230846Z 28015KT 08/M00 A299 RMK A01 T00811002  RH  056%=      5-min Rain = 0
KBI1 230847Z 28016G21KT 08/00 A299 RMK A01 T008100-0  RH  057%=      5-min Rain = 0
KBI1 230848Z 28018KT 08/M00 A299 RMK A01 T00801001  RH  057%=      5-min Rain = 0
KBI1 230849Z 28019KT 08/M00 A299 RMK A01 T00791002  RH  057%=      5-min Rain = 0
KBI1 230850Z 28015G21KT 08/M00 A299 RMK A01 T00801001  RH  056%=      5-min Rain = 0
KBI1 230851Z 28018KT 08/M00 A299 RMK A01 T00801001  RH  057%=      5-min Rain = 0
KBI1 230852Z 28015KT 08/M00 A299 RMK A01 T00801001  RH  057%=      5-min Rain = 0
KBI1 230853Z 28015G23KT 08/M00 A299 RMK A01 T00791001  RH  057%=      5-min Rain = 0
KBI1 230854Z 28017KT 08/M00 A299 RMK A01 T00781002  RH  057%=      5-min Rain = 0
KBI1 230855Z 28019G24KT 08/M00 A299 RMK A01 T00781002  RH  057%=      5-min Rain = 0
KBI1 230856Z 28018KT 08/M00 A299 RMK A01 T00791003  RH  056%=      5-min Rain = 0
KBI1 230857Z 28016KT 08/M00 A299 RMK A01 T00791002  RH  057%=      5-min Rain = 0
KBI1 230858Z 28017KT 08/M00 A299 RMK A01 T00791001  RH  057%=      5-min Rain = 0
KBI1 230859Z 28016KT 08/M00 A299 RMK A01 T00781002  RH  057%=      5-min Rain = 0
KBI1 230900Z 28018G27KT 08/M00 A299 RMK A01 T00781002  RH  057%=      5-min Rain = 0
KBI1 230901Z 28019KT 08/M00 A299 RMK A01 T00781002  RH  057%=      5-min Rain = 0
KBI1 230902Z 28021KT 08/M00 A299 RMK A01 T00771002  RH  057%=      5-min Rain = 0
KBI1 230903Z 28018G23KT 08/M00 A299 RMK A01 T00771003  RH  057%=      5-min Rain = 0
KBI1 230904Z 28020G25KT 08/M00 A299 RMK A01 T00771003  RH  057%=      5-min Rain = 0
KBI1 230905Z 28022G28KT 08/M00 A299 RMK A01 T00771004  RH  056%=      5-min Rain = 0
KBI1 230906Z 28020KT 08/M00 A299 RMK A01 T00781004  RH  056%=      5-min Rain = 0
KBI1 230907Z 27019KT 08/M01 A299 RMK A01 T00781005  RH  056%=      5-min Rain = 0
KBI1 230908Z 27021G26KT 08/M01 A299 RMK A01 T00781005  RH  056%=      5-min Rain = 0
KBI1 230909Z 27020G25KT 08/M01 A299 RMK A01 T00781005  RH  056%=      5-min Rain = 0
KBI1 230910Z 27023G29KT 08/M01 A299 RMK A01 T00781007  RH  055%=      5-min Rain = 0
KBI1 230911Z 27019G25KT 08/M01 A299 RMK A01 T00791007  RH  055%=      5-min Rain = 0
KBI1 230912Z 27018G24KT 08/M01 A299 RMK A01 T00781007  RH  055%=      5-min Rain = 0
KBI1 230913Z 27021KT 08/M01 A299 RMK A01 T00781008  RH  054%=      5-min Rain = 0
KBI1 230914Z 28018G24KT 08/M01 A299 RMK A01 T00781009  RH  054%=      5-min Rain = 0
KBI1 230915Z 27019KT 08/M01 A299 RMK A01 T00781009  RH  054%=      5-min Rain = 0
KBI1 230916Z 28017KT 08/M01 A299 RMK A01 T00781010  RH  054%=      5-min Rain = 0
KBI1 230917Z 27018G27KT 08/M01 A299 RMK A01 T00781009  RH  054%=      5-min Rain = 0
KBI1 230918Z 27018KT 08/M01 A299 RMK A01 T00781011  RH  053%=      5-min Rain = 0
KBI1 230919Z 27020G31KT 08/M01 A299 RMK A01 T00781010  RH  053%=      5-min Rain = 0
KBI1 230920Z 28015KT 08/M01 A299 RMK A01 T00781010  RH  054%=      5-min Rain = 0
KBI1 230921Z 28019G25KT 08/M01 A299 RMK A01 T00781011  RH  053%=      5-min Rain = 0
KBI1 230922Z 27016KT 08/M01 A299 RMK A01 T00781011  RH  053%=      5-min Rain = 0
KBI1 230923Z 28018G26KT 08/M01 A299 RMK A01 T00781011  RH  053%=      5-min Rain = 0
KBI1 230924Z 27016KT 08/M01 A299 RMK A01 T00781013  RH  053%=      5-min Rain = 0
KBI1 230925Z 27017KT 08/M01 A2991 RMK A01 T00781013  RH  053%=      5-min Rain = 0
KBI1 230926Z 27016G21KT 08/M01 A2991 RMK A01 T00781012  RH  053%=      5-min Rain = 0
KBI1 230927Z 27016G22KT 08/M01 A2991 RMK A01 T00781013  RH  053%=      5-min Rain = 0
KBI1 230928Z 27015G21KT 08/M01 A2991 RMK A01 T00771014  RH  052%=      5-min Rain = 0
KBI1 230929Z 27016G23KT 08/M02 A2991 RMK A01 T00781015  RH  052%=      5-min Rain = 0
KBI1 230930Z 27014G19KT 08/M02 A2991 RMK A01 T00781015  RH  052%=      5-min Rain = 0
KBI1 230931Z 27017G22KT 08/M02 A2991 RMK A01 T00781016  RH  052%=      5-min Rain = 0
KBI1 230932Z 27016G21KT 08/M02 A2991 RMK A01 T00781017  RH  051%=      5-min Rain = 0
KBI1 230933Z 27016KT 08/M02 A2991 RMK A01 T00781017  RH  051%=      5-min Rain = 0
KBI1 230934Z 26013G18KT 08/M02 A2991 RMK A01 T00781017  RH  051%=      5-min Rain = 0
KBI1 230935Z 27015G21KT 08/M02 A2991 RMK A01 T00781018  RH  051%=      5-min Rain = 0
KBI1 230936Z 27015G22KT 08/M02 A2991 RMK A01 T00791020  RH  050%=      5-min Rain = 0
KBI1 230937Z 26014G20KT 08/M02 A2991 RMK A01 T00791020  RH  050%=      5-min Rain = 0
KBI1 230938Z 26015KT 08/M02 A2991 RMK A01 T00781020  RH  050%=      5-min Rain = 0
KBI1 230939Z 27016KT 08/M02 A2991 RMK A01 T00781022  RH  049%=      5-min Rain = 0
KBI1 230940Z 27015G21KT 08/M02 A2991 RMK A01 T00791023  RH  049%=      5-min Rain = 0
KBI1 230941Z 27016G22KT 08/M02 A2991 RMK A01 T00791024  RH  048%=      5-min Rain = 0
KBI1 230942Z 27018KT 08/M03 A2991 RMK A01 T00791025  RH  048%=      5-min Rain = 0
KBI1 230943Z 26020G27KT 08/M03 A2991 RMK A01 T00801026  RH  047%=      5-min Rain = 0
KBI1 230944Z 26022KT 08/M03 A2991 RMK A01 T00801028  RH  046%=      5-min Rain = 0
KBI1 230945Z 26018G26KT 08/M03 A2991 RMK A01 T00811028  RH  046%=      5-min Rain = 0
KBI1 230946Z 26018KT 08/M03 A2991 RMK A01 T00811028  RH  046%=      5-min Rain = 0
KBI1 230947Z 26017KT 08/M03 A2992 RMK A01 T00801027  RH  047%=      5-min Rain = 0
KBI1 230948Z 26020G25KT 08/M03 A2991 RMK A01 T00791027  RH  047%=      5-min Rain = 0
KBI1 230949Z 27019G25KT 08/M03 A2992 RMK A01 T00791027  RH  047%=      5-min Rain = 0
KBI1 230950Z 26019G24KT 08/M03 A2992 RMK A01 T00791026  RH  047%=      5-min Rain = 0
KBI1 230951Z 27019KT 08/M03 A2992 RMK A01 T00781026  RH  048%=      5-min Rain = 0
KBI1 230952Z 27017KT 08/M03 A2992 RMK A01 T00781026  RH  048%=      5-min Rain = 0
KBI1 230953Z 26017KT 08/M03 A2992 RMK A01 T00771025  RH  048%=      5-min Rain = 0
KBI1 230954Z 26021G26KT 08/M03 A2992 RMK A01 T00761025  RH  049%=      5-min Rain = 0
KBI1 230955Z 26021KT 08/M03 A2992 RMK A01 T00761026  RH  048%=      5-min Rain = 0
KBI1 230956Z 27018G23KT 08/M03 A2992 RMK A01 T00761025  RH  049%=      5-min Rain = 0
KBI1 230957Z 27018G25KT 08/M02 A2992 RMK A01 T00751024  RH  049%=      5-min Rain = 0
KBI1 230958Z 27018G23KT 07/M02 A2991 RMK A01 T00741024  RH  050%=      5-min Rain = 0
KBI1 230959Z 27017G23KT 07/M02 A2991 RMK A01 T00741023  RH  050%=      5-min Rain = 0
KBI1 231000Z 27018G23KT 07/M02 A2991 RMK A01 T00731023  RH  050%=      5-min Rain = 0
KBI1 231001Z 27020KT 07/M02 A2991 RMK A01 T00731023  RH  051%=      5-min Rain = 0
KBI1 231002Z 27020KT 07/M02 A2991 RMK A01 T00721023  RH  051%=      5-min Rain = 0
KBI1 231003Z 27018G26KT 07/M02 A2991 RMK A01 T00721023  RH  051%=      5-min Rain = 0
KBI1 231004Z 28019G26KT 07/M02 A299 RMK A01 T00721023  RH  051%=      5-min Rain = 0
KBI1 231005Z 28017KT 07/M02 A299 RMK A01 T00711022  RH  051%=      5-min Rain = 0
KBI1 231006Z 27017KT 07/M02 A299 RMK A01 T00701022  RH  052%=      5-min Rain = 0
KBI1 231007Z 27022KT 07/M02 A299 RMK A01 T00701023  RH  052%=      5-min Rain = 0
KBI1 231008Z 27018G26KT 07/M02 A299 RMK A01 T00701023  RH  052%=      5-min Rain = 0
KBI1 231009Z 27020G25KT 07/M02 A299 RMK A01 T00711023  RH  051%=      5-min Rain = 0
KBI1 231010Z 26017G23KT 07/M02 A299 RMK A01 T00701023  RH  051%=      5-min Rain = 0
KBI1 231011Z 26018G23KT 07/M02 A2991 RMK A01 T00701023  RH  052%=      5-min Rain = 0
KBI1 231012Z 27015KT 07/M02 A2991 RMK A01 T00701022  RH  052%=      5-min Rain = 0
KBI1 231013Z 27021G26KT 07/M02 A2991 RMK A01 T00691023  RH  052%=      5-min Rain = 0
KBI1 231014Z 26017G22KT 07/M02 A2991 RMK A01 T00701023  RH  051%=      5-min Rain = 0
KBI1 231015Z 26015KT 07/M02 A2991 RMK A01 T00701023  RH  052%=      5-min Rain = 0
KBI1 231016Z 26016KT 07/M02 A2991 RMK A01 T00701023  RH  052%=      5-min Rain = 0
KBI1 231017Z 26016KT 07/M02 A2991 RMK A01 T00691023  RH  052%=      5-min Rain = 0
KBI1 231018Z 26015KT 07/M02 A2991 RMK A01 T00691023  RH  052%=      5-min Rain = 0
KBI1 231019Z 26015G21KT 07/M02 A299 RMK A01 T00691023  RH  052%=      5-min Rain = 0
KBI1 231020Z 26015G20KT 07/M02 A299 RMK A01 T00681023  RH  052%=      5-min Rain = 0
KBI1 231021Z 27018KT 07/M02 A299 RMK A01 T00691023  RH  052%=      5-min Rain = 0
KBI1 231022Z 26016KT 07/M02 A299 RMK A01 T00691023  RH  052%=      5-min Rain = 0
KBI1 231023Z 26016KT 07/M02 A2991 RMK A01 T00691023  RH  052%=      5-min Rain = 0
KBI1 231024Z 26020G25KT 07/M02 A299 RMK A01 T00681024  RH  052%=      5-min Rain = 0
KBI1 231025Z 26016KT 07/M02 A299 RMK A01 T00681024  RH  052%=      5-min Rain = 0
KBI1 231026Z 26020KT 07/M02 A299 RMK A01 T00681024  RH  052%=      5-min Rain = 0
KBI1 231027Z 26016G21KT 07/M03 A299 RMK A01 T00681025  RH  052%=      5-min Rain = 0
KBI1 231028Z 26018KT 07/M02 A299 RMK A01 T00681024  RH  052%=      5-min Rain = 0
KBI1 231029Z 27018KT 07/M03 A299 RMK A01 T00681025  RH  051%=      5-min Rain = 0
KBI1 231030Z 26019KT 07/M03 A299 RMK A01 T00681025  RH  051%=      5-min Rain = 0
KBI1 231031Z 27017G22KT 07/M03 A299 RMK A01 T00681026  RH  051%=      5-min Rain = 0
KBI1 231032Z 26019G24KT 07/M03 A299 RMK A01 T00681027  RH  051%=      5-min Rain = 0
KBI1 231033Z 27016G24KT 07/M03 A299 RMK A01 T00681027  RH  051%=      5-min Rain = 0
KBI1 231034Z 27020KT 07/M03 A299 RMK A01 T00681027  RH  051%=      5-min Rain = 0
KBI1 231035Z 27020G28KT 07/M03 A299 RMK A01 T00681027  RH  051%=      5-min Rain = 0
KBI1 231036Z 28019KT 07/M03 A299 RMK A01 T00681027  RH  051%=      5-min Rain = 0
KBI1 231037Z 27016KT 07/M03 A2989 RMK A01 T00681027  RH  051%=      5-min Rain = 0
KBI1 231038Z 28018KT 07/M03 A2989 RMK A01 T00681027  RH  051%=      5-min Rain = 0
KBI1 231039Z 27018KT 07/M03 A2989 RMK A01 T00681027  RH  051%=      5-min Rain = 0
KBI1 231040Z 28021G26KT 07/M03 A2989 RMK A01 T00681028  RH  050%=      5-min Rain = 0
KBI1 231041Z 27024G29KT 07/M03 A2989 RMK A01 T00691029  RH  050%=      5-min Rain = 0
KBI1 231042Z 28019KT 07/M03 A2989 RMK A01 T00691028  RH  050%=      5-min Rain = 0
KBI1 231043Z 27021KT 07/M03 A2989 RMK A01 T00691029  RH  050%=      5-min Rain = 0
KBI1 231044Z 28022G27KT 07/M03 A2989 RMK A01 T00691028  RH  050%=      5-min Rain = 0
KBI1 231045Z 27021G29KT 07/M03 A2989 RMK A01 T00691028  RH  050%=      5-min Rain = 0
KBI1 231046Z 27021G28KT 07/M03 A2989 RMK A01 T00691028  RH  050%=      5-min Rain = 0
KBI1 231047Z 27020G25KT 07/M03 A2989 RMK A01 T00691027  RH  050%=      5-min Rain = 0
KBI1 231048Z 27023KT 07/M03 A2989 RMK A01 T00681027  RH  050%=      5-min Rain = 0
KBI1 231049Z 27020KT 07/M03 A2989 RMK A01 T00681028  RH  050%=      5-min Rain = 0
KBI1 231050Z 27024G30KT 07/M03 A2989 RMK A01 T00681027  RH  050%=      5-min Rain = 0
KBI1 231051Z 27023G28KT 07/M03 A2989 RMK A01 T00691029  RH  050%=      5-min Rain = 0
KBI1 231052Z 26020KT 07/M03 A2989 RMK A01 T00701029  RH  050%=      5-min Rain = 0
KBI1 231053Z 27023KT 07/M03 A2989 RMK A01 T00691028  RH  050%=      5-min Rain = 0
KBI1 231054Z 27020G25KT 07/M03 A2989 RMK A01 T00691028  RH  050%=      5-min Rain = 0
KBI1 231055Z 27020G25KT 07/M03 A2989 RMK A01 T00691029  RH  050%=      5-min Rain = 0
KBI1 231056Z 27021KT 07/M03 A2989 RMK A01 T00691028  RH  050%=      5-min Rain = 0
KBI1 231057Z 26022G30KT 07/M03 A2989 RMK A01 T00691029  RH  050%=      5-min Rain = 0
KBI1 231058Z 27024G29KT 07/M03 A2989 RMK A01 T00691029  RH  050%=      5-min Rain = 0
KBI1 231059Z 27023KT 07/M03 A2989 RMK A01 T00691030  RH  049%=      5-min Rain = 0
KBI1 231100Z 27024G31KT 07/M03 A2989 RMK A01 T00691030  RH  049%=      5-min Rain = 0
KBI1 231101Z 27025KT 07/M03 A2989 RMK A01 T00701030  RH  049%=      5-min Rain = 0
KBI1 231102Z 27026G32KT 07/M03 A2989 RMK A01 T00701030  RH  049%=      5-min Rain = 0
KBI1 231103Z 27024G31KT 07/M03 A2989 RMK A01 T00701030  RH  049%=      5-min Rain = 0
KBI1 231104Z 27023G29KT 07/M03 A2989 RMK A01 T00701030  RH  049%=      5-min Rain = 0
KBI1 231105Z 26021G26KT 07/M03 A299 RMK A01 T00701030  RH  049%=      5-min Rain = 0
KBI1 231106Z 26021G27KT 07/M03 A299 RMK A01 T00691030  RH  049%=      5-min Rain = 0
KBI1 231107Z 26025G32KT 07/M03 A299 RMK A01 T00691030  RH  049%=      5-min Rain = 0
KBI1 231108Z 26020G25KT 07/M03 A299 RMK A01 T00691031  RH  049%=      5-min Rain = 0
KBI1 231109Z 26023G29KT 07/M03 A299 RMK A01 T00701031  RH  049%=      5-min Rain = 0
KBI1 231110Z 27022KT 07/M03 A299 RMK A01 T00691031  RH  049%=      5-min Rain = 0
KBI1 231111Z 26021G27KT 07/M03 A299 RMK A01 T00701031  RH  049%=      5-min Rain = 0
KBI1 231112Z 26021G27KT 07/M03 A299 RMK A01 T00701031  RH  049%=      5-min Rain = 0
KBI1 231113Z 26022KT 07/M03 A299 RMK A01 T00691031  RH  049%=      5-min Rain = 0
KBI1 231114Z 27022KT 07/M03 A299 RMK A01 T00701032  RH  048%=      5-min Rain = 0
KBI1 231115Z 27020G25KT 07/M03 A299 RMK A01 T00701032  RH  048%=      5-min Rain = 0
KBI1 231116Z 27022KT 07/M03 A2991 RMK A01 T00701032  RH  048%=      5-min Rain = 0
KBI1 231117Z 27023G28KT 07/M03 A299 RMK A01 T00701034  RH  048%=      5-min Rain = 0
KBI1 231118Z 26026G32KT 07/M03 A2991 RMK A01 T00711034  RH  047%=      5-min Rain = 0
KBI1 231119Z 27021KT 07/M03 A2991 RMK A01 T00721034  RH  047%=      5-min Rain = 0
KBI1 231120Z 26021KT 07/M03 A2991 RMK A01 T00711034  RH  047%=      5-min Rain = 0
KBI1 231121Z 27019G25KT 07/M03 A2991 RMK A01 T00711034  RH  047%=      5-min Rain = 0
KBI1 231122Z 26020G25KT 07/M03 A2991 RMK A01 T00701034  RH  047%=      5-min Rain = 0
KBI1 231123Z 27022G27KT 07/M03 A2991 RMK A01 T00701034  RH  047%=      5-min Rain = 0
KBI1 231124Z 27020KT 07/M04 A2991 RMK A01 T00701035  RH  047%=      5-min Rain = 0
KBI1 231125Z 27020KT 07/M04 A2991 RMK A01 T00701035  RH  047%=      5-min Rain = 0
KBI1 231126Z 27025G32KT 07/M04 A2991 RMK A01 T00701035  RH  047%=      5-min Rain = 0
KBI1 231127Z 27021G26KT 07/M04 A2991 RMK A01 T00711036  RH  046%=      5-min Rain = 0
KBI1 231128Z 27023KT 07/M04 A2991 RMK A01 T00711036  RH  046%=      5-min Rain = 0
KBI1 231129Z 27022G28KT 07/M04 A2991 RMK A01 T00711035  RH  047%=      5-min Rain = 0
KBI1 231130Z 27017KT 07/M04 A2992 RMK A01 T00711036  RH  047%=      5-min Rain = 0
KBI1 231131Z 27022KT 07/M04 A2991 RMK A01 T00701035  RH  047%=      5-min Rain = 0
KBI1 231132Z 26023G30KT 07/M04 A2991 RMK A01 T00701036  RH  047%=      5-min Rain = 0
KBI1 231133Z 26023G29KT 07/M04 A2991 RMK A01 T00711036  RH  047%=      5-min Rain = 0
KBI1 231134Z 27024KT 07/M04 A2992 RMK A01 T00711036  RH  046%=      5-min Rain = 0
KBI1 231135Z 27024G30KT 07/M04 A2991 RMK A01 T00711036  RH  046%=      5-min Rain = 0
KBI1 231136Z 27019G27KT 07/M04 A2992 RMK A01 T00711036  RH  046%=      5-min Rain = 0
KBI1 231137Z 27024G31KT 07/M04 A2992 RMK A01 T00711036  RH  046%=      5-min Rain = 0
KBI1 231138Z 26021KT 07/M04 A2992 RMK A01 T00711036  RH  046%=      5-min Rain = 0
KBI1 231139Z 27021KT 07/M04 A2992 RMK A01 T00711036  RH  047%=      5-min Rain = 0
KBI1 231140Z 27019KT 07/M04 A2992 RMK A01 T00711035  RH  047%=      5-min Rain = 0
KBI1 231141Z 27022G27KT 07/M04 A2992 RMK A01 T00701035  RH  047%=      5-min Rain = 0
KBI1 231142Z 27019G24KT 07/M04 A2993 RMK A01 T00711035  RH  047%=      5-min Rain = 0
KBI1 231143Z 27022KT 07/M04 A2992 RMK A01 T00701035  RH  047%=      5-min Rain = 0
KBI1 231144Z 27020KT 07/M04 A2992 RMK A01 T00701035  RH  047%=      5-min Rain = 0
KBI1 231145Z 27019KT 07/M03 A2992 RMK A01 T00701034  RH  047%=      5-min Rain = 0
KBI1 231146Z 27021G26KT 07/M03 A2992 RMK A01 T00691034  RH  048%=      5-min Rain = 0
KBI1 231147Z 27023G28KT 07/M03 A2992 RMK A01 T00691034  RH  048%=      5-min Rain = 0
KBI1 231148Z 27023KT 07/M03 A2992 RMK A01 T00691034  RH  048%=      5-min Rain = 0
KBI1 231149Z 27018G24KT 07/M03 A2992 RMK A01 T00691034  RH  048%=      5-min Rain = 0
KBI1 231150Z 27022G27KT 07/M03 A2992 RMK A01 T00681034  RH  048%=      5-min Rain = 0
KBI1 231151Z 27023G28KT 07/M03 A2992 RMK A01 T00681034  RH  048%=      5-min Rain = 0
KBI1 231152Z 27024G34KT 07/M03 A2991 RMK A01 T00681034  RH  048%=      5-min Rain = 0
KBI1 231153Z 27024G30KT 07/M03 A2992 RMK A01 T00691034  RH  048%=      5-min Rain = 0
KBI1 231154Z 27024KT 07/M03 A2991 RMK A01 T00691034  RH  048%=      5-min Rain = 0
KBI1 231155Z 27027G32KT 07/M03 A2991 RMK A01 T00691034  RH  048%=      5-min Rain = 0
KBI1 231156Z 27025G31KT 07/M03 A2992 RMK A01 T00701034  RH  047%=      5-min Rain = 0
KBI1 231157Z 27022G28KT 07/M03 A2992 RMK A01 T00691034  RH  048%=      5-min Rain = 0
KBI1 231158Z 28022KT 07/M03 A2992 RMK A01 T00691034  RH  048%=      5-min Rain = 0
KBI1 231159Z 27022G27KT 07/M03 A2992 RMK A01 T00681034  RH  048%=      5-min Rain = 0
KBI1 231200Z 28022G27KT 07/M03 A2992 RMK A01 T00681034  RH  048%=      5-min Rain = 0
KBI1 231201Z 28022G27KT 07/M03 A2993 RMK A01 T00681034  RH  048%=      5-min Rain = 0
KBI1 231202Z 28020G25KT 07/M03 A2993 RMK A01 T00681033  RH  048%=      5-min Rain = 0
KBI1 231203Z 28024G29KT 07/M03 A2993 RMK A01 T00671034  RH  049%=      5-min Rain = 0
KBI1 231204Z 28022G29KT 07/M03 A2993 RMK A01 T00671034  RH  048%=      5-min Rain = 0
KBI1 231205Z 28025G31KT 07/M03 A2993 RMK A01 T00671034  RH  048%=      5-min Rain = 0
KBI1 231206Z 28019G26KT 07/M03 A2993 RMK A01 T00671034  RH  049%=      5-min Rain = 0
KBI1 231207Z 28020G27KT 07/M03 A2993 RMK A01 T00671034  RH  049%=      5-min Rain = 0
KBI1 231208Z 28020G25KT 07/M03 A2993 RMK A01 T00661034  RH  049%=      5-min Rain = 0
KBI1 231209Z 28021KT 07/M03 A2993 RMK A01 T00661034  RH  049%=      5-min Rain = 0
KBI1 231210Z 27019KT 07/M03 A2993 RMK A01 T00661034  RH  049%=      5-min Rain = 0
KBI1 231211Z 27020KT 07/M03 A2994 RMK A01 T00661034  RH  049%=      5-min Rain = 0
KBI1 231212Z 28020G25KT 07/M03 A2994 RMK A01 T00661034  RH  049%=      5-min Rain = 0
KBI1 231213Z 27019G25KT 07/M03 A2994 RMK A01 T00651034  RH  049%=      5-min Rain = 0
KBI1 231214Z 28021G26KT 07/M03 A2994 RMK A01 T00651033  RH  049%=      5-min Rain = 0
KBI1 231215Z 27022KT 07/M03 A2994 RMK A01 T00661033  RH  049%=      5-min Rain = 0
KBI1 231216Z 27019G24KT 07/M03 A2994 RMK A01 T00651034  RH  049%=      5-min Rain = 0
KBI1 231217Z 27017G22KT 07/M03 A2994 RMK A01 T00651033  RH  050%=      5-min Rain = 0
KBI1 231218Z 28017KT 06/M03 A2994 RMK A01 T00641033  RH  050%=      5-min Rain = 0
KBI1 231219Z 27016G23KT 06/M03 A2994 RMK A01 T00631033  RH  050%=      5-min Rain = 0
KBI1 231220Z 27016G21KT 06/M03 A2994 RMK A01 T00631033  RH  050%=      5-min Rain = 0
KBI1 231221Z 27017G22KT 06/M03 A2994 RMK A01 T00631032  RH  051%=      5-min Rain = 0
KBI1 231222Z 28017KT 06/M03 A2994 RMK A01 T00631032  RH  051%=      5-min Rain = 0
KBI1 231223Z 28016G21KT 06/M03 A2994 RMK A01 T00631032  RH  051%=      5-min Rain = 0
KBI1 231224Z 28018G25KT 06/M03 A2994 RMK A01 T00631032  RH  051%=      5-min Rain = 0
KBI1 231225Z 28019G25KT 06/M03 A2994 RMK A01 T00631033  RH  050%=      5-min Rain = 0
KBI1 231226Z 28019KT 06/M03 A2994 RMK A01 T00641032  RH  050%=      5-min Rain = 0
KBI1 231227Z 28017G22KT 06/M03 A2994 RMK A01 T00631032  RH  050%=      5-min Rain = 0
KBI1 231228Z 28020KT 06/M03 A2994 RMK A01 T00631032  RH  051%=      5-min Rain = 0
KBI1 231229Z 28016G21KT 06/M03 A2994 RMK A01 T00631032  RH  051%=      5-min Rain = 0
KBI1 231230Z 28018KT 06/M03 A2994 RMK A01 T00621032  RH  051%=      5-min Rain = 0
KBI1 231231Z 28017KT 06/M03 A2994 RMK A01 T00621032  RH  051%=      5-min Rain = 0
KBI1 231232Z 28020KT 06/M03 A2994 RMK A01 T00621032  RH  051%=      5-min Rain = 0
KBI1 231233Z 28019KT 06/M03 A2994 RMK A01 T00621032  RH  051%=      5-min Rain = 0
KBI1 231234Z 28018KT 06/M03 A2994 RMK A01 T00621032  RH  051%=      5-min Rain = 0
KBI1 231235Z 28015KT 06/M03 A2994 RMK A01 T00611032  RH  051%=      5-min Rain = 0
KBI1 231236Z 28016G23KT 06/M03 A2994 RMK A01 T00601032  RH  052%=      5-min Rain = 0
KBI1 231237Z 28018G23KT 06/M03 A2994 RMK A01 T00601032  RH  052%=      5-min Rain = 0
KBI1 231238Z 28017G22KT 06/M03 A2994 RMK A01 T00601032  RH  052%=      5-min Rain = 0
KBI1 231239Z 29015G20KT 06/M03 A2994 RMK A01 T00601032  RH  052%=      5-min Rain = 0
KBI1 231240Z 28020G25KT 06/M03 A2994 RMK A01 T00601032  RH  052%=      5-min Rain = 0
KBI1 231241Z 29020KT 06/M03 A2994 RMK A01 T00601033  RH  051%=      5-min Rain = 0
KBI1 231242Z 28018G23KT 06/M03 A2995 RMK A01 T00601033  RH  051%=      5-min Rain = 0
KBI1 231243Z 28018G25KT 06/M03 A2995 RMK A01 T00601033  RH  052%=      5-min Rain = 0
KBI1 231244Z 29020KT 06/M03 A2995 RMK A01 T00601032  RH  052%=      5-min Rain = 0
KBI1 231245Z 28017KT 06/M03 A2995 RMK A01 T00601032  RH  052%=      5-min Rain = 0
KBI1 231246Z 29017KT 06/M03 A2995 RMK A01 T00601032  RH  052%=      5-min Rain = 0
KBI1 231247Z 28018KT 06/M03 A2995 RMK A01 T00591032  RH  052%=      5-min Rain = 0
KBI1 231248Z 29018KT 06/M03 A2995 RMK A01 T00591032  RH  052%=      5-min Rain = 0
KBI1 231249Z 29019KT 06/M03 A2995 RMK A01 T00581032  RH  052%=      5-min Rain = 0
KBI1 231250Z 29020KT 06/M03 A2995 RMK A01 T00581033  RH  052%=      5-min Rain = 0
KBI1 231251Z 29020G26KT 06/M03 A2995 RMK A01 T00581033  RH  052%=      5-min Rain = 0
KBI1 231252Z 29018G26KT 06/M03 A2995 RMK A01 T00581033  RH  052%=      5-min Rain = 0
KBI1 231253Z 29019KT 06/M03 A2995 RMK A01 T00571033  RH  052%=      5-min Rain = 0
KBI1 231254Z 29016KT 06/M03 A2995 RMK A01 T00571033  RH  052%=      5-min Rain = 0
KBI1 231255Z 30015KT 06/M03 A2995 RMK A01 T00561033  RH  053%=      5-min Rain = 0
KBI1 231256Z 30018KT 06/M03 A2995 RMK A01 T00551033  RH  053%=      5-min Rain = 0
KBI1 231257Z 30017KT 06/M03 A2995 RMK A01 T00551033  RH  053%=      5-min Rain = 0
KBI1 231258Z 30019KT 06/M03 A2995 RMK A01 T00561034  RH  052%=      5-min Rain = 0
KBI1 231259Z 29016G21KT 06/M03 A2995 RMK A01 T00561034  RH  052%=      5-min Rain = 0
KBI1 231300Z 29016G21KT 06/M03 A2996 RMK A01 T00561034  RH  052%=      5-min Rain = 0
KBI1 231301Z 30018KT 06/M03 A2996 RMK A01 T00551034  RH  053%=      5-min Rain = 0
KBI1 231302Z 29018KT 06/M03 A2996 RMK A01 T00551034  RH  053%=      5-min Rain = 0
KBI1 231303Z 29016KT 06/M03 A2996 RMK A01 T00551034  RH  052%=      5-min Rain = 0
KBI1 231304Z 29014G19KT 06/M03 A2996 RMK A01 T00551034  RH  053%=      5-min Rain = 0
KBI1 231305Z 29014G22KT 05/M03 A2996 RMK A01 T00541034  RH  053%=      5-min Rain = 0
KBI1 231306Z 30016KT 05/M04 A2996 RMK A01 T00541035  RH  053%=      5-min Rain = 0
KBI1 231307Z 30017G22KT 06/M04 A2997 RMK A01 T00551035  RH  052%=      5-min Rain = 0
KBI1 231308Z 30017KT 06/M04 A2997 RMK A01 T00551036  RH  052%=      5-min Rain = 0
KBI1 231309Z 30014KT 06/M04 A2997 RMK A01 T00551036  RH  052%=      5-min Rain = 0
KBI1 231310Z 30017KT 05/M04 A2997 RMK A01 T00541036  RH  052%=      5-min Rain = 0
KBI1 231311Z 30015KT 05/M04 A2997 RMK A01 T00541036  RH  052%=      5-min Rain = 0
KBI1 231312Z 30015KT 06/M04 A2997 RMK A01 T00551036  RH  052%=      5-min Rain = 0
KBI1 231313Z 30014G19KT 05/M04 A2997 RMK A01 T00541037  RH  052%=      5-min Rain = 0
KBI1 231314Z 29017KT 05/M04 A2997 RMK A01 T00541036  RH  052%=      5-min Rain = 0
KBI1 231315Z 29013KT 05/M04 A2997 RMK A01 T00541036  RH  052%=      5-min Rain = 0
KBI1 231316Z 29015KT 05/M04 A2997 RMK A01 T00531036  RH  053%=      5-min Rain = 0
KBI1 231317Z 28015KT 05/M04 A2997 RMK A01 T00531036  RH  052%=      5-min Rain = 0
KBI1 231318Z 29014KT 05/M04 A2997 RMK A01 T00531037  RH  052%=      5-min Rain = 0
KBI1 231319Z 29013KT 05/M04 A2997 RMK A01 T00531037  RH  052%=      5-min Rain = 0
KBI1 231320Z 28012KT 05/M04 A2997 RMK A01 T00531037  RH  052%=      5-min Rain = 0
KBI1 231321Z 27011KT 05/M04 A2997 RMK A01 T00521037  RH  053%=      5-min Rain = 0
KBI1 231322Z 28014KT 05/M04 A2997 RMK A01 T00511037  RH  053%=      5-min Rain = 0
KBI1 231323Z 27013KT 05/M04 A2997 RMK A01 T00511036  RH  053%=      5-min Rain = 0
KBI1 231324Z 27013KT 05/M04 A2997 RMK A01 T00511037  RH  053%=      5-min Rain = 0
KBI1 231325Z 28016KT 05/M04 A2997 RMK A01 T00511038  RH  053%=      5-min Rain = 0
KBI1 231326Z 27017KT 05/M04 A2997 RMK A01 T00521038  RH  052%=      5-min Rain = 0
KBI1 231327Z 28017G22KT 05/M04 A2996 RMK A01 T00531039  RH  051%=      5-min Rain = 0
KBI1 231328Z 28014KT 05/M04 A2997 RMK A01 T00531040  RH  051%=      5-min Rain = 0
KBI1 231329Z 28014KT 05/M04 A2997 RMK A01 T00531040  RH  051%=      5-min Rain = 0
KBI1 231330Z 28014G19KT 05/M04 A2997 RMK A01 T00521040  RH  051%=      5-min Rain = 0
KBI1 231331Z 27017KT 05/M04 A2997 RMK A01 T00521041  RH  051%=      5-min Rain = 0
KBI1 231332Z 28016KT 05/M04 A2997 RMK A01 T00521042  RH  051%=      5-min Rain = 0
KBI1 231333Z 27013KT 05/M04 A2997 RMK A01 T00521043  RH  050%=      5-min Rain = 0
KBI1 231334Z 27014KT 05/M04 A2997 RMK A01 T00521042  RH  050%=      5-min Rain = 0
KBI1 231335Z 27019KT 05/M04 A2996 RMK A01 T00511044  RH  050%=      5-min Rain = 0
KBI1 231336Z 27017KT 05/M05 A2996 RMK A01 T00531045  RH  049%=      5-min Rain = 0
KBI1 231337Z 26014KT 05/M05 A2996 RMK A01 T00541045  RH  049%=      5-min Rain = 0
KBI1 231338Z 27017KT 05/M05 A2997 RMK A01 T00531046  RH  049%=      5-min Rain = 0
KBI1 231339Z 26018G23KT 05/M05 A2997 RMK A01 T00531047  RH  048%=      5-min Rain = 0
KBI1 231340Z 27020G25KT 05/M05 A2997 RMK A01 T00541048  RH  048%=      5-min Rain = 0
KBI1 231341Z 27020KT 06/M05 A2997 RMK A01 T00551049  RH  047%=      5-min Rain = 0
KBI1 231342Z 28019KT 06/M05 A2997 RMK A01 T00551050  RH  047%=      5-min Rain = 0
KBI1 231343Z 27017KT 06/M05 A2997 RMK A01 T00551050  RH  047%=      5-min Rain = 0
KBI1 231344Z 27016KT 06/M05 A2997 RMK A01 T00551050  RH  047%=      5-min Rain = 0
KBI1 231345Z 28017G23KT 06/M05 A2997 RMK A01 T00551049  RH  047%=      5-min Rain = 0
KBI1 231346Z 28015KT 06/M05 A2997 RMK A01 T00551050  RH  047%=      5-min Rain = 0
KBI1 231347Z 28015KT 06/M05 A2997 RMK A01 T00551050  RH  047%=      5-min Rain = 0
KBI1 231348Z 28015G20KT 06/M05 A2997 RMK A01 T00551050  RH  047%=      5-min Rain = 0
KBI1 231349Z 28019G24KT 06/M05 A2997 RMK A01 T00551050  RH  047%=      5-min Rain = 0
KBI1 231350Z 28019KT 06/M05 A2997 RMK A01 T00551051  RH  046%=      5-min Rain = 0
KBI1 231351Z 28019KT 06/M05 A2997 RMK A01 T00561052  RH  046%=      5-min Rain = 0
KBI1 231352Z 28017KT 06/M05 A2997 RMK A01 T00561052  RH  046%=      5-min Rain = 0
KBI1 231353Z 28017KT 06/M05 A2997 RMK A01 T00561051  RH  046%=      5-min Rain = 0
KBI1 231354Z 28018G23KT 06/M05 A2997 RMK A01 T00561051  RH  046%=      5-min Rain = 0
KBI1 231355Z 28016KT 06/M05 A2997 RMK A01 T00561052  RH  046%=      5-min Rain = 0
KBI1 231356Z 28017G22KT 06/M05 A2997 RMK A01 T00561051  RH  046%=      5-min Rain = 0
KBI1 231357Z 28018KT 06/M05 A2997 RMK A01 T00561051  RH  046%=      5-min Rain = 0
KBI1 231358Z 27015KT 06/M05 A2997 RMK A01 T00561051  RH  046%=      5-min Rain = 0
KBI1 231359Z 28015KT 06/M05 A2997 RMK A01 T00561050  RH  046%=      5-min Rain = 0
KBI1 231400Z 28016KT 06/M05 A2997 RMK A01 T00561051  RH  046%=      5-min Rain = 0
KBI1 231401Z 28015G22KT 06/M05 A2997 RMK A01 T00561051  RH  046%=      5-min Rain = 0
KBI1 231402Z 28019KT 06/M05 A2997 RMK A01 T00571051  RH  046%=      5-min Rain = 0
KBI1 231403Z 28022G27KT 06/M05 A2997 RMK A01 T00571052  RH  045%=      5-min Rain = 0
KBI1 231404Z 28020G25KT 06/M05 A2997 RMK A01 T00581052  RH  045%=      5-min Rain = 0
KBI1 231405Z 27019G25KT 06/M05 A2997 RMK A01 T00581053  RH  045%=      5-min Rain = 0
KBI1 231406Z 27019KT 06/M05 A2996 RMK A01 T00591053  RH  044%=      5-min Rain = 0
KBI1 231407Z 27017G22KT 06/M05 A2997 RMK A01 T00581053  RH  045%=      5-min Rain = 0
KBI1 231408Z 27019KT 06/M05 A2997 RMK A01 T00591053  RH  045%=      5-min Rain = 0
KBI1 231409Z 27018KT 06/M05 A2997 RMK A01 T00591053  RH  045%=      5-min Rain = 0
KBI1 231410Z 27017G23KT 06/M05 A2997 RMK A01 T00591053  RH  045%=      5-min Rain = 0
KBI1 231411Z 27018G24KT 06/M05 A2997 RMK A01 T00591052  RH  045%=      5-min Rain = 0
KBI1 231412Z 27021G27KT 06/M05 A2997 RMK A01 T00601054  RH  044%=      5-min Rain = 0
KBI1 231413Z 27021G27KT 06/M05 A2997 RMK A01 T00611053  RH  044%=      5-min Rain = 0
KBI1 231414Z 27022KT 06/M05 A2997 RMK A01 T00611053  RH  044%=      5-min Rain = 0
KBI1 231415Z 27021KT 06/M05 A2997 RMK A01 T00611054  RH  043%=      5-min Rain = 0
KBI1 231416Z 28022KT 06/M05 A2997 RMK A01 T00621054  RH  043%=      5-min Rain = 0
KBI1 231417Z 28017KT 06/M05 A2997 RMK A01 T00621053  RH  043%=      5-min Rain = 0
KBI1 231418Z 27019KT 06/M05 A2997 RMK A01 T00621052  RH  044%=      5-min Rain = 0
KBI1 231419Z 27022G27KT 06/M05 A2997 RMK A01 T00621053  RH  043%=      5-min Rain = 0
KBI1 231420Z 27022KT 06/M05 A2997 RMK A01 T00631054  RH  043%=      5-min Rain = 0
KBI1 231421Z 27018G25KT 06/M05 A2997 RMK A01 T00631054  RH  043%=      5-min Rain = 0
KBI1 231422Z 27022G27KT 06/M05 A2997 RMK A01 T00631054  RH  043%=      5-min Rain = 0
KBI1 231423Z 27022KT 06/M05 A2997 RMK A01 T00631054  RH  043%=      5-min Rain = 0
KBI1 231424Z 27022KT 06/M05 A2997 RMK A01 T00641054  RH  043%=      5-min Rain = 0
KBI1 231425Z 27024KT 06/M06 A2997 RMK A01 T00641055  RH  042%=      5-min Rain = 0
KBI1 231426Z 27023KT 06/M06 A2997 RMK A01 T00641055  RH  042%=      5-min Rain = 0
KBI1 231427Z 27022G27KT 06/M06 A2997 RMK A01 T00641055  RH  042%=      5-min Rain = 0
KBI1 231428Z 27018G24KT 07/M05 A2997 RMK A01 T00651053  RH  042%=      5-min Rain = 0
KBI1 231429Z 27019KT 07/M05 A2997 RMK A01 T00661053  RH  042%=      5-min Rain = 0
KBI1 231430Z 27018KT 07/M05 A2997 RMK A01 T00661053  RH  042%=      5-min Rain = 0
KBI1 231431Z 26022G27KT 07/M05 A2997 RMK A01 T00661054  RH  042%=      5-min Rain = 0
KBI1 231432Z 27020KT 07/M05 A2998 RMK A01 T00661054  RH  042%=      5-min Rain = 0
KBI1 231433Z 27022G27KT 07/M05 A2998 RMK A01 T00661054  RH  042%=      5-min Rain = 0
KBI1 231434Z 27020KT 07/M05 A2998 RMK A01 T00661053  RH  042%=      5-min Rain = 0
KBI1 231435Z 27021G26KT 07/M05 A2998 RMK A01 T00671054  RH  042%=      5-min Rain = 0
KBI1 231436Z 27025KT 07/M06 A2997 RMK A01 T00671055  RH  042%=      5-min Rain = 0
KBI1 231437Z 26020KT 07/M05 A2998 RMK A01 T00671054  RH  042%=      5-min Rain = 0
KBI1 231438Z 27022G28KT 07/M05 A2997 RMK A01 T00681054  RH  042%=      5-min Rain = 0
KBI1 231439Z 27023KT 07/M06 A2997 RMK A01 T00681055  RH  041%=      5-min Rain = 0
KBI1 231440Z 27021KT 07/M05 A2998 RMK A01 T00681054  RH  041%=      5-min Rain = 0
KBI1 231441Z 26018G24KT 07/M05 A2998 RMK A01 T00681053  RH  041%=      5-min Rain = 0
KBI1 231442Z 26022KT 07/M05 A2997 RMK A01 T00691053  RH  041%=      5-min Rain = 0
KBI1 231443Z 27020G26KT 07/M06 A2998 RMK A01 T00691055  RH  041%=      5-min Rain = 0
KBI1 231444Z 26022KT 07/M05 A2998 RMK A01 T00691053  RH  042%=      5-min Rain = 0
KBI1 231445Z 27022KT 07/M05 A2997 RMK A01 T00691054  RH  041%=      5-min Rain = 0
KBI1 231446Z 27020G25KT 07/M05 A2997 RMK A01 T00701054  RH  041%=      5-min Rain = 0
KBI1 231447Z 26020KT 07/M05 A2997 RMK A01 T00701053  RH  041%=      5-min Rain = 0
KBI1 231448Z 26020G25KT 07/M05 A2997 RMK A01 T00691053  RH  041%=      5-min Rain = 0
KBI1 231449Z 27018KT 07/M05 A2998 RMK A01 T00691054  RH  041%=      5-min Rain = 0
KBI1 231450Z 27019G28KT 07/M05 A2998 RMK A01 T00701052  RH  041%=      5-min Rain = 0
KBI1 231451Z 27022G27KT 07/M05 A2998 RMK A01 T00711052  RH  041%=      5-min Rain = 0
KBI1 231452Z 27021G27KT 07/M05 A2998 RMK A01 T00711052  RH  041%=      5-min Rain = 0
KBI1 231453Z 26020G26KT 07/M05 A2998 RMK A01 T00711054  RH  041%=      5-min Rain = 0
KBI1 231454Z 26022G28KT 07/M05 A2998 RMK A01 T00711054  RH  041%=      5-min Rain = 0
KBI1 231455Z 27020G25KT 07/M05 A2998 RMK A01 T00711054  RH  041%=      5-min Rain = 0
KBI1 231456Z 27019G24KT 07/M05 A2998 RMK A01 T00701054  RH  041%=      5-min Rain = 0
KBI1 231457Z 27017G22KT 07/M05 A2998 RMK A01 T00711053  RH  041%=      5-min Rain = 0
KBI1 231458Z 27021KT 07/M05 A2998 RMK A01 T00711052  RH  041%=      5-min Rain = 0
KBI1 231459Z 28022G27KT 07/M05 A2998 RMK A01 T00721053  RH  041%=      5-min Rain = 0
KBI1 231500Z 28021KT 07/M05 A2998 RMK A01 T00721054  RH  040%=      5-min Rain = 0
KBI1 231501Z 28020KT 07/M05 A2998 RMK A01 T00731053  RH  040%=      5-min Rain = 0
KBI1 231502Z 28021KT 07/M05 A2998 RMK A01 T00741053  RH  040%=      5-min Rain = 0
KBI1 231503Z 28023KT 07/M05 A2998 RMK A01 T00741054  RH  040%=      5-min Rain = 0
KBI1 231504Z 28024G30KT 07/M06 A2998 RMK A01 T00731055  RH  040%=      5-min Rain = 0
KBI1 231505Z 28026G31KT 07/M06 A2998 RMK A01 T00731055  RH  040%=      5-min Rain = 0
KBI1 231506Z 27023G28KT 07/M06 A2998 RMK A01 T00721057  RH  039%=      5-min Rain = 0
KBI1 231507Z 28022G30KT 07/M06 A2998 RMK A01 T00721057  RH  039%=      5-min Rain = 0
KBI1 231508Z 28022KT 07/M06 A2998 RMK A01 T00731056  RH  039%=      5-min Rain = 0
KBI1 231509Z 27024G30KT 07/M05 A2998 RMK A01 T00741054  RH  040%=      5-min Rain = 0
KBI1 231510Z 28027KT 08/M06 A2998 RMK A01 T00751057  RH  039%=      5-min Rain = 0
KBI1 231511Z 28021G26KT 08/M06 A2998 RMK A01 T00751057  RH  039%=      5-min Rain = 0
KBI1 231512Z 28019G24KT 08/M06 A2998 RMK A01 T00761055  RH  039%=      5-min Rain = 0
KBI1 231513Z 28022KT 08/M05 A2998 RMK A01 T00771053  RH  039%=      5-min Rain = 0
KBI1 231514Z 27020G26KT 08/M05 A2998 RMK A01 T00771054  RH  039%=      5-min Rain = 0
KBI1 231515Z 28024KT 08/M06 A2998 RMK A01 T00781056  RH  038%=      5-min Rain = 0
KBI1 231516Z 28027G32KT 08/M06 A2998 RMK A01 T00781057  RH  038%=      5-min Rain = 0
KBI1 231517Z 27022KT 08/M06 A2998 RMK A01 T00771058  RH  038%=      5-min Rain = 0
KBI1 231518Z 28021KT 08/M06 A2998 RMK A01 T00781057  RH  038%=      5-min Rain = 0
KBI1 231519Z 28022KT 08/M06 A2998 RMK A01 T00781056  RH  038%=      5-min Rain = 0
KBI1 231520Z 27024G33KT 08/M06 A2998 RMK A01 T00781057  RH  038%=      5-min Rain = 0
KBI1 231521Z 28020G27KT 08/M06 A2999 RMK A01 T00781057  RH  038%=      5-min Rain = 0
KBI1 231522Z 28022KT 08/M06 A2998 RMK A01 T00791056  RH  038%=      5-min Rain = 0
KBI1 231523Z 27023G31KT 08/M06 A2998 RMK A01 T00791058  RH  037%=      5-min Rain = 0
KBI1 231524Z 27022G28KT 08/M06 A2998 RMK A01 T00811057  RH  037%=      5-min Rain = 0
KBI1 231525Z 27024G30KT 08/M06 A2998 RMK A01 T00811060  RH  036%=      5-min Rain = 0
KBI1 231526Z 28022G27KT 08/M06 A2999 RMK A01 T00821059  RH  036%=      5-min Rain = 0
KBI1 231527Z 28022KT 08/M06 A2998 RMK A01 T00831060  RH  036%=      5-min Rain = 0
KBI1 231528Z 27021G28KT 08/M06 A2999 RMK A01 T00841060  RH  036%=      5-min Rain = 0
KBI1 231529Z 28023G28KT 08/M06 A2998 RMK A01 T00841060  RH  035%=      5-min Rain = 0
KBI1 231530Z 28023KT 09/M06 A2998 RMK A01 T00851060  RH  035%=      5-min Rain = 0
KBI1 231531Z 27027G32KT 09/M06 A2999 RMK A01 T00851061  RH  035%=      5-min Rain = 0
KBI1 231532Z 27023G31KT 09/M06 A2999 RMK A01 T00851062  RH  035%=      5-min Rain = 0
KBI1 231533Z 27027G32KT 09/M06 A2999 RMK A01 T00851062  RH  035%=      5-min Rain = 0
KBI1 231534Z 27021G26KT 09/M06 A2999 RMK A01 T00861060  RH  035%=      5-min Rain = 0
KBI1 231535Z 27021G27KT 09/M06 A2999 RMK A01 T00871060  RH  035%=      5-min Rain = 0
KBI1 231536Z 27026KT 09/M06 A2999 RMK A01 T00881061  RH  034%=      5-min Rain = 0
KBI1 231537Z 26024G30KT 09/M06 A2999 RMK A01 T00881063  RH  034%=      5-min Rain = 0
KBI1 231538Z 27026G32KT 09/M07 A2999 RMK A01 T00871066  RH  033%=      5-min Rain = 0
KBI1 231539Z 28021KT 09/M06 A2999 RMK A01 T00881064  RH  034%=      5-min Rain = 0
KBI1 231540Z 27025KT 09/M06 A2999 RMK A01 T00891064  RH  033%=      5-min Rain = 0
KBI1 231541Z 27022G31KT 09/M06 A30 RMK A01 T00901063  RH  033%=      5-min Rain = 0
KBI1 231542Z 27028G34KT 09/M07 A2999 RMK A01 T00901065  RH  033%=      5-min Rain = 0
KBI1 231543Z 27026G34KT 09/M07 A2999 RMK A01 T00891068  RH  032%=      5-min Rain = 0
KBI1 231544Z 26026G33KT 09/M07 A2999 RMK A01 T00901068  RH  032%=      5-min Rain = 0
KBI1 231545Z 27022G28KT 09/M07 A2999 RMK A01 T00901068  RH  032%=      5-min Rain = 0
KBI1 231546Z 26026KT 09/M07 A2999 RMK A01 T00921066  RH  032%=      5-min Rain = 0
KBI1 231547Z 26025G31KT 09/M07 A2999 RMK A01 T00921066  RH  032%=      5-min Rain = 0
KBI1 231548Z 27023G31KT 09/M07 A30 RMK A01 T00921067  RH  032%=      5-min Rain = 0
KBI1 231549Z 27023G31KT 09/M07 A30 RMK A01 T00931066  RH  032%=      5-min Rain = 0
KBI1 231550Z 27027G33KT 09/M07 A30 RMK A01 T00931069  RH  031%=      5-min Rain = 0
KBI1 231551Z 27024G30KT 09/M07 A30 RMK A01 T00931068  RH  031%=      5-min Rain = 0
KBI1 231552Z 27026G31KT 09/M07 A30 RMK A01 T00931071  RH  031%=      5-min Rain = 0
KBI1 231553Z 27021KT 09/M07 A30 RMK A01 T00931070  RH  031%=      5-min Rain = 0
KBI1 231554Z 27020KT 10/M07 A3001 RMK A01 T00951066  RH  031%=      5-min Rain = 0
KBI1 231555Z 27021G26KT 10/M07 A30 RMK A01 T00971065  RH  031%=      5-min Rain = 0
KBI1 231556Z 27022G30KT 10/M07 A30 RMK A01 T00981067  RH  031%=      5-min Rain = 0
KBI1 231557Z 27028G33KT 10/M07 A30 RMK A01 T00981068  RH  030%=      5-min Rain = 0
KBI1 231558Z 27028G34KT 10/M07 A30 RMK A01 T00971074  RH  029%=      5-min Rain = 0
KBI1 231559Z 27028G36KT 10/M08 A30 RMK A01 T00961077  RH  029%=      5-min Rain = 0
KBI1 231600Z 27029G34KT 10/M08 A30 RMK A01 T00961076  RH  029%=      5-min Rain = 0
KBI1 231601Z 28028G36KT 10/M08 A30 RMK A01 T00971075  RH  029%=      5-min Rain = 0
KBI1 231602Z 27027KT 10/M08 A30 RMK A01 T00971076  RH  029%=      5-min Rain = 0
KBI1 231603Z 27026G38KT 10/M08 A30 RMK A01 T00981076  RH  029%=      5-min Rain = 0
KBI1 231604Z 27030G40KT 10/M08 A30 RMK A01 T00991078  RH  028%=      5-min Rain = 0
KBI1 231605Z 28025G30KT 10/M08 A30 RMK A01 T00991078  RH  028%=      5-min Rain = 0
KBI1 231606Z 27025G33KT 10/M08 A30 RMK A01 T00991077  RH  028%=      5-min Rain = 0
KBI1 231607Z 27024G33KT 10/M08 A30 RMK A01 T00991077  RH  028%=      5-min Rain = 0
KBI1 231608Z 27028G33KT 10/M08 A2999 RMK A01 T01001076  RH  028%=      5-min Rain = 0
KBI1 231609Z 28027G32KT 10/M08 A30 RMK A01 T01001078  RH  028%=      5-min Rain = 0
KBI1 231610Z 28027KT 10/M08 A30 RMK A01 T01001077  RH  028%=      5-min Rain = 0
KBI1 231611Z 28026G32KT 10/M08 A30 RMK A01 T01011078  RH  028%=      5-min Rain = 0
KBI1 231612Z 28024G30KT 10/M08 A30 RMK A01 T01011078  RH  028%=      5-min Rain = 0
KBI1 231613Z 27025G33KT 10/M08 A30 RMK A01 T01021076  RH  028%=      5-min Rain = 0
KBI1 231614Z 27025G30KT 10/M08 A30 RMK A01 T01021077  RH  028%=      5-min Rain = 0
KBI1 231615Z 27022G27KT 10/M08 A3001 RMK A01 T01011076  RH  028%=      5-min Rain = 0
KBI1 231616Z 28021G28KT 10/M07 A3001 RMK A01 T01031072  RH  028%=      5-min Rain = 0
KBI1 231617Z 27022KT 10/M07 A3001 RMK A01 T01041073  RH  028%=      5-min Rain = 0
KBI1 231618Z 27025G34KT 10/M07 A3001 RMK A01 T01041074  RH  028%=      5-min Rain = 0
KBI1 231619Z 27026G32KT 10/M08 A3001 RMK A01 T01041075  RH  027%=      5-min Rain = 0
KBI1 231620Z 26023G30KT 10/M08 A3001 RMK A01 T01031077  RH  027%=      5-min Rain = 0
KBI1 231621Z 27027G33KT 10/M08 A3001 RMK A01 T01041076  RH  027%=      5-min Rain = 0
KBI1 231622Z 26029G34KT 11/M08 A3001 RMK A01 T01051080  RH  026%=      5-min Rain = 0
KBI1 231623Z 27028G35KT 10/M08 A3001 RMK A01 T01041082  RH  026%=      5-min Rain = 0
KBI1 231624Z 27029KT 10/M08 A3001 RMK A01 T01041081  RH  026%=      5-min Rain = 0
KBI1 231625Z 27026G34KT 10/M08 A3001 RMK A01 T01031081  RH  026%=      5-min Rain = 0
KBI1 231626Z 26028G34KT 10/M08 A3001 RMK A01 T01031082  RH  026%=      5-min Rain = 0
KBI1 231627Z 26027KT 10/M08 A3001 RMK A01 T01021083  RH  026%=      5-min Rain = 0
KBI1 231628Z 26027G33KT 10/M08 A3001 RMK A01 T01021082  RH  027%=      5-min Rain = 0
KBI1 231629Z 26029G34KT 10/M08 A30 RMK A01 T01031083  RH  026%=      5-min Rain = 0
KBI1 231630Z 26025G30KT 10/M08 A3001 RMK A01 T01021082  RH  027%=      5-min Rain = 0
KBI1 231631Z 27028KT 10/M08 A3001 RMK A01 T01041080  RH  027%=      5-min Rain = 0
KBI1 231632Z 26024G32KT 11/M08 A3001 RMK A01 T01051081  RH  026%=      5-min Rain = 0
KBI1 231633Z 26019KT 11/M08 A3001 RMK A01 T01071076  RH  027%=      5-min Rain = 0
KBI1 231634Z 26023G35KT 11/M07 A3001 RMK A01 T01101073  RH  027%=      5-min Rain = 0
KBI1 231635Z 27026G32KT 11/M08 A3001 RMK A01 T01111078  RH  026%=      5-min Rain = 0
KBI1 231636Z 26027G35KT 11/M08 A3001 RMK A01 T01101082  RH  025%=      5-min Rain = 0
KBI1 231637Z 27026G31KT 11/M09 A3001 RMK A01 T01091085  RH  025%=      5-min Rain = 0
KBI1 231638Z 27025G31KT 11/M09 A3001 RMK A01 T01091085  RH  025%=      5-min Rain = 0
KBI1 231639Z 27022G27KT 11/M08 A3001 RMK A01 T01101084  RH  025%=      5-min Rain = 0
KBI1 231640Z 27024KT 11/M08 A3001 RMK A01 T01101083  RH  025%=      5-min Rain = 0
KBI1 231641Z 28021KT 11/M08 A3001 RMK A01 T01111081  RH  025%=      5-min Rain = 0
KBI1 231642Z 26026G32KT 11/M08 A3001 RMK A01 T01121081  RH  025%=      5-min Rain = 0
KBI1 231643Z 27021G27KT 11/M08 A3002 RMK A01 T01111082  RH  025%=      5-min Rain = 0
KBI1 231644Z 28024KT 11/M08 A3002 RMK A01 T01131079  RH  025%=      5-min Rain = 0
KBI1 231645Z 28021KT 11/M08 A3002 RMK A01 T01121079  RH  025%=      5-min Rain = 0
KBI1 231646Z 28022G28KT 11/M08 A3002 RMK A01 T01121078  RH  026%=      5-min Rain = 0
KBI1 231647Z 28023KT 11/M08 A3002 RMK A01 T01121078  RH  026%=      5-min Rain = 0
KBI1 231648Z 27019G24KT 11/M08 A3002 RMK A01 T01121078  RH  026%=      5-min Rain = 0
KBI1 231649Z 27018G25KT 11/M07 A3002 RMK A01 T01141074  RH  026%=      5-min Rain = 0
KBI1 231650Z 26027G37KT 12/M08 A3002 RMK A01 T01161081  RH  024%=      5-min Rain = 0
KBI1 231651Z 27026G36KT 12/M09 A3002 RMK A01 T01151087  RH  024%=      5-min Rain = 0
KBI1 231652Z 27031G37KT 11/M09 A3002 RMK A01 T01141089  RH  023%=      5-min Rain = 0
KBI1 231653Z 27027G35KT 11/M09 A3002 RMK A01 T01141090  RH  023%=      5-min Rain = 0
KBI1 231654Z 28028KT 11/M09 A3002 RMK A01 T01141090  RH  023%=      5-min Rain = 0
KBI1 231655Z 28025G30KT 11/M09 A3002 RMK A01 T01141091  RH  023%=      5-min Rain = 0
KBI1 231656Z 28028G34KT 11/M09 A3002 RMK A01 T01141090  RH  023%=      5-min Rain = 0
KBI1 231657Z 28029G35KT 11/M09 A3002 RMK A01 T01141092  RH  023%=      5-min Rain = 0
KBI1 231658Z 28023KT 11/M09 A3002 RMK A01 T01141090  RH  023%=      5-min Rain = 0
KBI1 231659Z 27028G33KT 12/M09 A3002 RMK A01 T01171087  RH  023%=      5-min Rain = 0
KBI1 231700Z 28025G34KT 12/M09 A3002 RMK A01 T01171092  RH  022%=      5-min Rain = 0
KBI1 231701Z 28030G35KT 12/M09 A3002 RMK A01 T01161092  RH  022%=      5-min Rain = 0
KBI1 231702Z 28028G36KT 12/M09 A3002 RMK A01 T01151093  RH  022%=      5-min Rain = 0
KBI1 231703Z 28028G35KT 12/M09 A3002 RMK A01 T01161090  RH  023%=      5-min Rain = 0
KBI1 231704Z 28028G34KT 12/M09 A3002 RMK A01 T01171091  RH  022%=      5-min Rain = 0
KBI1 231705Z 28025G35KT 12/M09 A3002 RMK A01 T01161090  RH  023%=      5-min Rain = 0
KBI1 231706Z 28029KT 12/M09 A3002 RMK A01 T01161091  RH  023%=      5-min Rain = 0
KBI1 231707Z 28027G34KT 12/M09 A3002 RMK A01 T01161092  RH  022%=      5-min Rain = 0
KBI1 231708Z 27027KT 12/M09 A3002 RMK A01 T01161092  RH  022%=      5-min Rain = 0
KBI1 231709Z 27026G36KT 12/M09 A3002 RMK A01 T01161090  RH  023%=      5-min Rain = 0
KBI1 231710Z 27027G32KT 12/M09 A3003 RMK A01 T01181089  RH  023%=      5-min Rain = 0
KBI1 231711Z 27021G29KT 12/M09 A3003 RMK A01 T01181090  RH  022%=      5-min Rain = 0
KBI1 231712Z 27025G31KT 12/M09 A3002 RMK A01 T01201086  RH  023%=      5-min Rain = 0
KBI1 231713Z 27021G27KT 12/M09 A3002 RMK A01 T01211087  RH  022%=      5-min Rain = 0
KBI1 231714Z 28022KT 12/M09 A3002 RMK A01 T01211091  RH  022%=      5-min Rain = 0
KBI1 231715Z 28021G27KT 12/M09 A3002 RMK A01 T01201088  RH  022%=      5-min Rain = 0
KBI1 231716Z 27016KT 12/M08 A3003 RMK A01 T01231081  RH  023%=      5-min Rain = 0
KBI1 231717Z 27018G24KT 13/M08 A3003 RMK A01 T01281078  RH  023%=      5-min Rain = 0
KBI1 231718Z 28023KT 13/M09 A3003 RMK A01 T01281089  RH  021%=      5-min Rain = 0
KBI1 231719Z 28029KT 13/M10 A3002 RMK A01 T01251095  RH  021%=      5-min Rain = 0
KBI1 231720Z 28024G32KT 12/M10 A3003 RMK A01 T01231097  RH  021%=      5-min Rain = 0
KBI1 231721Z 28023G28KT 12/M09 A3003 RMK A01 T01231093  RH  021%=      5-min Rain = 0
KBI1 231722Z 28024G29KT 12/M09 A3003 RMK A01 T01241093  RH  021%=      5-min Rain = 0
KBI1 231723Z 28025G34KT 12/M09 A3003 RMK A01 T01241092  RH  021%=      5-min Rain = 0
KBI1 231724Z 28030G35KT 12/M10 A3002 RMK A01 T01231095  RH  021%=      5-min Rain = 0
KBI1 231725Z 27024KT 12/M10 A3003 RMK A01 T01221095  RH  021%=      5-min Rain = 0
KBI1 231726Z 27024KT 12/M09 A3003 RMK A01 T01231093  RH  021%=      5-min Rain = 0
KBI1 231727Z 28021KT 12/M09 A3003 RMK A01 T01241091  RH  021%=      5-min Rain = 0
KBI1 231728Z 27025G30KT 13/M09 A3003 RMK A01 T01251091  RH  021%=      5-min Rain = 0
KBI1 231729Z 28020G25KT 12/M09 A3003 RMK A01 T01231092  RH  021%=      5-min Rain = 0
KBI1 231730Z 28021G26KT 13/M09 A3003 RMK A01 T01261087  RH  022%=      5-min Rain = 0
KBI1 231731Z 28025G32KT 13/M09 A3003 RMK A01 T01271089  RH  021%=      5-min Rain = 0
KBI1 231732Z 28024G29KT 13/M09 A3002 RMK A01 T01271091  RH  021%=      5-min Rain = 0
KBI1 231733Z 28024G29KT 13/M09 A3002 RMK A01 T01261092  RH  021%=      5-min Rain = 0
KBI1 231734Z 27021G26KT 13/M09 A3003 RMK A01 T01251090  RH  021%=      5-min Rain = 0
KBI1 231735Z 28022G28KT 13/M09 A3003 RMK A01 T01261087  RH  022%=      5-min Rain = 0
KBI1 231736Z 28024G30KT 13/M09 A3003 RMK A01 T01291087  RH  021%=      5-min Rain = 0
KBI1 231737Z 28021G27KT 13/M09 A3003 RMK A01 T01291091  RH  021%=      5-min Rain = 0
KBI1 231738Z 27018KT 13/M08 A3003 RMK A01 T01311083  RH  022%=      5-min Rain = 0
KBI1 231739Z 27018G23KT 13/M08 A3003 RMK A01 T01331082  RH  022%=      5-min Rain = 0
KBI1 231740Z 27024G29KT 13/M08 A3003 RMK A01 T01341082  RH  022%=      5-min Rain = 0
KBI1 231741Z 27021G26KT 13/M09 A3003 RMK A01 T01321085  RH  021%=      5-min Rain = 0
KBI1 231742Z 27021KT 13/M09 A3003 RMK A01 T01331085  RH  021%=      5-min Rain = 0
KBI1 231743Z 27025G30KT 13/M09 A3003 RMK A01 T01331089  RH  021%=      5-min Rain = 0
KBI1 231744Z 28024KT 13/M10 A3003 RMK A01 T01301095  RH  020%=      5-min Rain = 0
KBI1 231745Z 28026KT 13/M10 A3002 RMK A01 T01291096  RH  020%=      5-min Rain = 0
KBI1 231746Z 28027G35KT 13/M10 A3003 RMK A01 T01291098  RH  020%=      5-min Rain = 0
KBI1 231747Z 28028G33KT 13/M10 A3002 RMK A01 T01271099  RH  020%=      5-min Rain = 0
KBI1 231748Z 28026KT 13/M10 A3003 RMK A01 T01271096  RH  020%=      5-min Rain = 0
KBI1 231749Z 28026KT 13/M09 A3002 RMK A01 T01281094  RH  020%=      5-min Rain = 0
KBI1 231750Z 27027G33KT 13/M09 A3003 RMK A01 T01291094  RH  020%=      5-min Rain = 0
KBI1 231751Z 28024G32KT 13/M10 A3003 RMK A01 T01301097  RH  020%=      5-min Rain = 0
KBI1 231752Z 28028G35KT 13/M10 A3002 RMK A01 T01301098  RH  019%=      5-min Rain = 0
KBI1 231753Z 28020G26KT 13/M09 A3002 RMK A01 T01301092  RH  020%=      5-min Rain = 0
KBI1 231754Z 28023G28KT 13/M09 A3002 RMK A01 T01331090  RH  020%=      5-min Rain = 0
KBI1 231755Z 28021G26KT 13/M10 A3002 RMK A01 T01331095  RH  019%=      5-min Rain = 0
KBI1 231756Z 28022KT 13/M10 A3002 RMK A01 T01331097  RH  019%=      5-min Rain = 0
KBI1 231757Z 28020G25KT 13/M09 A3002 RMK A01 T01331094  RH  020%=      5-min Rain = 0
KBI1 231758Z 28024KT 14/M09 A3002 RMK A01 T01351094  RH  019%=      5-min Rain = 0
KBI1 231759Z 28026G31KT 14/M10 A3002 RMK A01 T01351097  RH  019%=      5-min Rain = 0
KBI1 231800Z 28024G30KT 14/M10 A3002 RMK A01 T01351098  RH  019%=      5-min Rain = 0
KBI1 231801Z 28027KT 13/M10 A3002 RMK A01 T01341100  RH  019%=      5-min Rain = 0
KBI1 231802Z 28028G34KT 13/M10 A3002 RMK A01 T01341099  RH  019%=      5-min Rain = 0
KBI1 231803Z 28028KT 13/M11 A3002 RMK A01 T01331106  RH  018%=      5-min Rain = 0
KBI1 231804Z 28025G31KT 13/M11 A3002 RMK A01 T01321106  RH  018%=      5-min Rain = 0
KBI1 231805Z 28025G30KT 13/M10 A3002 RMK A01 T01321102  RH  019%=      5-min Rain = 0
KBI1 231806Z 27027KT 13/M10 A3002 RMK A01 T01331099  RH  019%=      5-min Rain = 0
KBI1 231807Z 28024G29KT 13/M10 A3002 RMK A01 T01341101  RH  018%=      5-min Rain = 0
KBI1 231808Z 28029G37KT 14/M10 A3002 RMK A01 T01351104  RH  018%=      5-min Rain = 0
KBI1 231809Z 28028G35KT 13/M11 A3002 RMK A01 T01341108  RH  018%=      5-min Rain = 0
KBI1 231810Z 28026G32KT 13/M11 A3002 RMK A01 T01341107  RH  018%=      5-min Rain = 0
KBI1 231811Z 29029KT 13/M11 A3002 RMK A01 T01331106  RH  018%=      5-min Rain = 0
KBI1 231812Z 28027KT 13/M10 A3002 RMK A01 T01331099  RH  019%=      5-min Rain = 0
KBI1 231813Z 28028G33KT 13/M10 A3002 RMK A01 T01341100  RH  019%=      5-min Rain = 0
KBI1 231814Z 28023G31KT 14/M09 A3002 RMK A01 T01351093  RH  020%=      5-min Rain = 0
KBI1 231815Z 28025G31KT 14/M09 A3002 RMK A01 T01391091  RH  019%=      5-min Rain = 0
KBI1 231816Z 28029G35KT 14/M10 A3001 RMK A01 T01371096  RH  019%=      5-min Rain = 0
KBI1 231817Z 27028G34KT 14/M10 A3001 RMK A01 T01361101  RH  018%=      5-min Rain = 0
KBI1 231818Z 27023G29KT 14/M10 A3002 RMK A01 T01361099  RH  019%=      5-min Rain = 0
KBI1 231819Z 28027G33KT 14/M10 A3001 RMK A01 T01381098  RH  019%=      5-min Rain = 0
KBI1 231820Z 28026G32KT 14/M10 A3001 RMK A01 T01371099  RH  019%=      5-min Rain = 0
KBI1 231821Z 28026G35KT 14/M10 A3001 RMK A01 T01361095  RH  019%=      5-min Rain = 0
KBI1 231822Z 28026G35KT 14/M10 A3001 RMK A01 T01371095  RH  019%=      5-min Rain = 0
KBI1 231823Z 28029G34KT 14/M10 A3001 RMK A01 T01371102  RH  018%=      5-min Rain = 0
KBI1 231824Z 28029G37KT 14/M10 A3001 RMK A01 T01371103  RH  018%=      5-min Rain = 0
KBI1 231825Z 28027KT 14/M10 A3001 RMK A01 T01371102  RH  018%=      5-min Rain = 0
KBI1 231826Z 28023KT 14/M10 A3001 RMK A01 T01371099  RH  018%=      5-min Rain = 0
KBI1 231827Z 27022G29KT 14/M09 A3001 RMK A01 T01401094  RH  019%=      5-min Rain = 0
KBI1 231828Z 27020G28KT 14/M10 A3001 RMK A01 T01431095  RH  018%=      5-min Rain = 0
KBI1 231829Z 28025KT 15/M09 A3001 RMK A01 T01451094  RH  018%=      5-min Rain = 0
KBI1 231830Z 27024G30KT 14/M10 A3001 RMK A01 T01431101  RH  017%=      5-min Rain = 0
KBI1 231831Z 28024G32KT 14/M10 A3001 RMK A01 T01431100  RH  018%=      5-min Rain = 0
KBI1 231832Z 28024G30KT 14/M10 A3001 RMK A01 T01431100  RH  018%=      5-min Rain = 0
KBI1 231833Z 27026G33KT 15/M10 A3001 RMK A01 T01451101  RH  017%=      5-min Rain = 0
KBI1 231834Z 27029G34KT 14/M11 A3001 RMK A01 T01441107  RH  017%=      5-min Rain = 0
KBI1 231835Z 28027G33KT 14/M11 A3001 RMK A01 T01421112  RH  016%=      5-min Rain = 0
KBI1 231836Z 27029G34KT 14/M11 A30 RMK A01 T01421111  RH  016%=      5-min Rain = 0
KBI1 231837Z 28024G33KT 14/M12 A30 RMK A01 T01401115  RH  016%=      5-min Rain = 0
KBI1 231838Z 27026G33KT 14/M11 A30 RMK A01 T01401109  RH  017%=      5-min Rain = 0
KBI1 231839Z 27024G30KT 14/M11 A30 RMK A01 T01421107  RH  017%=      5-min Rain = 0
KBI1 231840Z 28025KT 14/M11 A30 RMK A01 T01431107  RH  017%=      5-min Rain = 0
KBI1 231841Z 27024KT 14/M10 A30 RMK A01 T01431104  RH  017%=      5-min Rain = 0
KBI1 231842Z 27023G30KT 15/M10 A30 RMK A01 T01461100  RH  017%=      5-min Rain = 0
KBI1 231843Z 27024G29KT 15/M10 A30 RMK A01 T01471101  RH  017%=      5-min Rain = 0
KBI1 231844Z 27021G28KT 15/M10 A30 RMK A01 T01461101  RH  017%=      5-min Rain = 0
KBI1 231845Z 28030G38KT 15/M10 A30 RMK A01 T01471101  RH  017%=      5-min Rain = 0
KBI1 231846Z 27029KT 14/M11 A30 RMK A01 T01441111  RH  016%=      5-min Rain = 0
KBI1 231847Z 27028G33KT 14/M11 A30 RMK A01 T01431111  RH  016%=      5-min Rain = 0
KBI1 231848Z 26023G28KT 14/M11 A30 RMK A01 T01441106  RH  017%=      5-min Rain = 0
KBI1 231849Z 28021G26KT 15/M10 A30 RMK A01 T01461099  RH  017%=      5-min Rain = 0
KBI1 231850Z 27024G30KT 15/M10 A30 RMK A01 T01481097  RH  017%=      5-min Rain = 0
KBI1 231851Z 27025KT 15/M10 A30 RMK A01 T01481102  RH  017%=      5-min Rain = 0
KBI1 231852Z 28024G29KT 15/M10 A30 RMK A01 T01461104  RH  017%=      5-min Rain = 0
KBI1 231853Z 28025KT 15/M10 A30 RMK A01 T01451103  RH  017%=      5-min Rain = 0
KBI1 231854Z 27024KT 15/M10 A30 RMK A01 T01461100  RH  017%=      5-min Rain = 0
KBI1 231855Z 28025KT 15/M10 A30 RMK A01 T01471099  RH  017%=      5-min Rain = 0
KBI1 231856Z 28021G26KT 15/M10 A30 RMK A01 T01471099  RH  017%=      5-min Rain = 0
KBI1 231857Z 28024G31KT 15/M10 A30 RMK A01 T01501099  RH  017%=      5-min Rain = 0
KBI1 231858Z 28023G30KT 15/M10 A30 RMK A01 T01491103  RH  016%=      5-min Rain = 0
KBI1 231859Z 27022KT 15/M10 A30 RMK A01 T01481102  RH  017%=      5-min Rain = 0
KBI1 231900Z 26021KT 15/M10 A30 RMK A01 T01491098  RH  017%=      5-min Rain = 0
KBI1 231901Z 26024G30KT 15/M10 A30 RMK A01 T01501099  RH  017%=      5-min Rain = 0
KBI1 231902Z 27023KT 15/M10 A30 RMK A01 T01481101  RH  017%=      5-min Rain = 0
KBI1 231903Z 27022G30KT 15/M09 A30 RMK A01 T01491094  RH  018%=      5-min Rain = 0
KBI1 231904Z 27024G31KT 15/M10 A30 RMK A01 T01511099  RH  017%=      5-min Rain = 0
KBI1 231905Z 27021G26KT 15/M10 A30 RMK A01 T01511096  RH  017%=      5-min Rain = 0
KBI1 231906Z 27024G32KT 15/M10 A30 RMK A01 T01511101  RH  016%=      5-min Rain = 0
KBI1 231907Z 26024G29KT 15/M11 A30 RMK A01 T01491105  RH  016%=      5-min Rain = 0
KBI1 231908Z 26027G33KT 15/M11 A30 RMK A01 T01481107  RH  016%=      5-min Rain = 0
KBI1 231909Z 26025KT 15/M11 A30 RMK A01 T01471108  RH  016%=      5-min Rain = 0
KBI1 231910Z 26025KT 15/M10 A30 RMK A01 T01471103  RH  017%=      5-min Rain = 0
KBI1 231911Z 26022KT 15/M10 A30 RMK A01 T01471101  RH  017%=      5-min Rain = 0
KBI1 231912Z 26022G27KT 15/M10 A30 RMK A01 T01471101  RH  017%=      5-min Rain = 0
KBI1 231913Z 27018G23KT 15/M10 A30 RMK A01 T01481097  RH  017%=      5-min Rain = 0
KBI1 231914Z 26020G29KT 15/M09 A30 RMK A01 T01541089  RH  018%=      5-min Rain = 0
KBI1 231915Z 27025G31KT 15/M10 A30 RMK A01 T01531098  RH  017%=      5-min Rain = 0
KBI1 231916Z 27024G31KT 15/M10 A30 RMK A01 T01521099  RH  017%=      5-min Rain = 0
KBI1 231917Z 26027G32KT 15/M10 A30 RMK A01 T01511103  RH  016%=      5-min Rain = 0
KBI1 231918Z 27027KT 15/M11 A30 RMK A01 T01491105  RH  016%=      5-min Rain = 0
KBI1 231919Z 27025G30KT 15/M10 A30 RMK A01 T01491103  RH  017%=      5-min Rain = 0
KBI1 231920Z 27024G30KT 15/M10 A30 RMK A01 T01521097  RH  017%=      5-min Rain = 0
KBI1 231921Z 27022KT 15/M10 A3001 RMK A01 T01521101  RH  017%=      5-min Rain = 0
KBI1 231922Z 27020G26KT 15/M10 A3001 RMK A01 T01511100  RH  017%=      5-min Rain = 0
KBI1 231923Z 27019G26KT 15/M09 A3001 RMK A01 T01531094  RH  017%=      5-min Rain = 0
KBI1 231924Z 28022G27KT 15/M10 A3001 RMK A01 T01531103  RH  016%=      5-min Rain = 0
KBI1 231925Z 28020G26KT 15/M10 A3001 RMK A01 T01521101  RH  016%=      5-min Rain = 0
KBI1 231926Z 27022G27KT 15/M10 A3001 RMK A01 T01521099  RH  017%=      5-min Rain = 0
KBI1 231927Z 27020G26KT 15/M10 A30 RMK A01 T01521098  RH  017%=      5-min Rain = 0
KBI1 231928Z 27023G28KT 15/M09 A3001 RMK A01 T01541094  RH  017%=      5-min Rain = 0
KBI1 231929Z 26024G29KT 15/M10 A30 RMK A01 T01531099  RH  017%=      5-min Rain = 0
KBI1 231930Z 27024KT 15/M10 A30 RMK A01 T01501095  RH  017%=      5-min Rain = 0
KBI1 231931Z 28018G23KT 15/M09 A3001 RMK A01 T01511093  RH  018%=      5-min Rain = 0
KBI1 231932Z 27018G26KT 15/M09 A3001 RMK A01 T01531088  RH  018%=      5-min Rain = 0
KBI1 231933Z 27022KT 15/M09 A3001 RMK A01 T01541093  RH  017%=      5-min Rain = 0
KBI1 231934Z 28020G25KT 15/M10 A3001 RMK A01 T01511097  RH  017%=      5-min Rain = 0
KBI1 231935Z 28024G29KT 15/M10 A3001 RMK A01 T01521099  RH  017%=      5-min Rain = 0
KBI1 231936Z 28024G34KT 15/M10 A3001 RMK A01 T01531104  RH  016%=      5-min Rain = 0
KBI1 231937Z 27022G27KT 16/M10 A3001 RMK A01 T01551096  RH  017%=      5-min Rain = 0
KBI1 231938Z 27021G26KT 16/M10 A3001 RMK A01 T01571102  RH  016%=      5-min Rain = 0
KBI1 231939Z 28019G25KT 15/M10 A3001 RMK A01 T01541100  RH  016%=      5-min Rain = 0
KBI1 231940Z 26019G25KT 16/M10 A3001 RMK A01 T01551096  RH  017%=      5-min Rain = 0
KBI1 231941Z 26020G28KT 16/M10 A3001 RMK A01 T01571098  RH  016%=      5-min Rain = 0
KBI1 231942Z 27022G29KT 16/M10 A3001 RMK A01 T01571102  RH  016%=      5-min Rain = 0
KBI1 231943Z 28021G26KT 16/M10 A3001 RMK A01 T01571102  RH  016%=      5-min Rain = 0
KBI1 231944Z 28022KT 16/M11 A3001 RMK A01 T01561105  RH  016%=      5-min Rain = 0
KBI1 231945Z 28024G30KT 16/M11 A3001 RMK A01 T01551105  RH  016%=      5-min Rain = 0
KBI1 231946Z 28023KT 16/M11 A3001 RMK A01 T01551107  RH  015%=      5-min Rain = 0
KBI1 231947Z 28023G28KT 15/M11 A30 RMK A01 T01541112  RH  015%=      5-min Rain = 0
KBI1 231948Z 27024KT 15/M11 A30 RMK A01 T01541112  RH  015%=      5-min Rain = 0
KBI1 231949Z 28019G24KT 15/M11 A3001 RMK A01 T01531110  RH  015%=      5-min Rain = 0
KBI1 231950Z 29018KT 16/M10 A30 RMK A01 T01561099  RH  016%=      5-min Rain = 0
KBI1 231951Z 29023G29KT 16/M10 A30 RMK A01 T01581098  RH  016%=      5-min Rain = 0
KBI1 231952Z 26019KT 16/M10 A30 RMK A01 T01581099  RH  016%=      5-min Rain = 0
KBI1 231953Z 28024G31KT 16/M10 A3001 RMK A01 T01581097  RH  016%=      5-min Rain = 0
KBI1 231954Z 27027G32KT 16/M11 A30 RMK A01 T01581109  RH  015%=      5-min Rain = 0
KBI1 231955Z 27021G26KT 15/M12 A3001 RMK A01 T01541119  RH  014%=      5-min Rain = 0
KBI1 231956Z 27019G24KT 15/M11 A3001 RMK A01 T01541112  RH  015%=      5-min Rain = 0
KBI1 231957Z 28024G30KT 16/M11 A3001 RMK A01 T01551112  RH  015%=      5-min Rain = 0
KBI1 231958Z 29021KT 16/M11 A3001 RMK A01 T01551113  RH  015%=      5-min Rain = 0
KBI1 231959Z 29022KT 15/M11 A3001 RMK A01 T01541105  RH  016%=      5-min Rain = 0
KBI1 232000Z 29025G31KT 16/M10 A30 RMK A01 T01551102  RH  016%=      5-min Rain = 0
KBI1 232001Z 28021KT 16/M10 A3001 RMK A01 T01571097  RH  016%=      5-min Rain = 0
KBI1 232002Z 27019KT 16/M10 A3001 RMK A01 T01581097  RH  016%=      5-min Rain = 0
KBI1 232003Z 27024KT 16/M10 A3001 RMK A01 T01601100  RH  016%=      5-min Rain = 0
KBI1 232004Z 27023G28KT 16/M10 A3001 RMK A01 T01591103  RH  016%=      5-min Rain = 0
KBI1 232005Z 27022G28KT 16/M11 A3001 RMK A01 T01591107  RH  015%=      5-min Rain = 0
KBI1 232006Z 27026G31KT 16/M11 A30 RMK A01 T01571107  RH  015%=      5-min Rain = 0
KBI1 232007Z 28019G26KT 16/M11 A3001 RMK A01 T01551106  RH  016%=      5-min Rain = 0
KBI1 232008Z 27020G25KT 16/M10 A30 RMK A01 T01551102  RH  016%=      5-min Rain = 0
KBI1 232009Z 26020G25KT 16/M10 A30 RMK A01 T01561102  RH  016%=      5-min Rain = 0
KBI1 232010Z 27019G26KT 16/M10 A30 RMK A01 T01581096  RH  017%=      5-min Rain = 0
KBI1 232011Z 27021G26KT 16/M11 A30 RMK A01 T01591106  RH  015%=      5-min Rain = 0
KBI1 232012Z 28020KT 16/M11 A30 RMK A01 T01581108  RH  015%=      5-min Rain = 0
KBI1 232013Z 26022KT 16/M11 A3001 RMK A01 T01581105  RH  015%=      5-min Rain = 0
KBI1 232014Z 27021G29KT 16/M11 A3001 RMK A01 T01571105  RH  015%=      5-min Rain = 0
KBI1 232015Z 27025G30KT 16/M11 A30 RMK A01 T01571106  RH  015%=      5-min Rain = 0
KBI1 232016Z 28022G28KT 16/M11 A3001 RMK A01 T01561105  RH  016%=      5-min Rain = 0
KBI1 232017Z 29023KT 16/M11 A30 RMK A01 T01561105  RH  016%=      5-min Rain = 0
KBI1 232018Z 28021KT 16/M10 A30 RMK A01 T01571104  RH  016%=      5-min Rain = 0
KBI1 232019Z 27019KT 16/M10 A30 RMK A01 T01591099  RH  016%=      5-min Rain = 0
KBI1 232020Z 28019G24KT 16/M10 A30 RMK A01 T01601103  RH  015%=      5-min Rain = 0
KBI1 232021Z 28017G22KT 16/M10 A30 RMK A01 T01591103  RH  015%=      5-min Rain = 0
KBI1 232022Z 27014G19KT 16/M10 A30 RMK A01 T01611095  RH  016%=      5-min Rain = 0
KBI1 232023Z 27017G24KT 17/M09 A30 RMK A01 T01661089  RH  017%=      5-min Rain = 0
KBI1 232024Z 28022G27KT 17/M10 A30 RMK A01 T01671100  RH  015%=      5-min Rain = 0
KBI1 232025Z 28027G32KT 16/M11 A30 RMK A01 T01641110  RH  014%=      5-min Rain = 0
KBI1 232026Z 27021G27KT 16/M11 A30 RMK A01 T01611111  RH  014%=      5-min Rain = 0
KBI1 232027Z 26025G30KT 16/M11 A30 RMK A01 T01611112  RH  014%=      5-min Rain = 0
KBI1 232028Z 28024G31KT 16/M12 A30 RMK A01 T01601119  RH  014%=      5-min Rain = 0
KBI1 232029Z 28021KT 16/M12 A30 RMK A01 T01591117  RH  014%=      5-min Rain = 0
KBI1 232030Z 28023KT 16/M11 A30 RMK A01 T01601114  RH  014%=      5-min Rain = 0
KBI1 232031Z 27022KT 16/M11 A3001 RMK A01 T01611114  RH  014%=      5-min Rain = 0
KBI1 232032Z 27028G34KT 16/M12 A30 RMK A01 T01611122  RH  013%=      5-min Rain = 0
KBI1 232033Z 27022KT 16/M13 A30 RMK A01 T01601126  RH  013%=      5-min Rain = 0
KBI1 232034Z 27023KT 16/M13 A30 RMK A01 T01591125  RH  013%=      5-min Rain = 0
KBI1 232035Z 27022KT 16/M13 A30 RMK A01 T01581126  RH  013%=      5-min Rain = 0
KBI1 232036Z 27017G22KT 16/M12 A3001 RMK A01 T01591117  RH  014%=      5-min Rain = 0
KBI1 232037Z 29021G28KT 16/M10 A3001 RMK A01 T01631104  RH  015%=      5-min Rain = 0
KBI1 232038Z 28021G26KT 16/M11 A3001 RMK A01 T01631105  RH  015%=      5-min Rain = 0
KBI1 232039Z 27019G25KT 16/M11 A3001 RMK A01 T01631106  RH  015%=      5-min Rain = 0
KBI1 232040Z 26027KT 16/M11 A30 RMK A01 T01621112  RH  014%=      5-min Rain = 0
KBI1 232041Z 28024G29KT 16/M11 A30 RMK A01 T01601114  RH  014%=      5-min Rain = 0
KBI1 232042Z 28025G31KT 16/M11 A3001 RMK A01 T01611110  RH  015%=      5-min Rain = 0
KBI1 232043Z 29019KT 16/M11 A3001 RMK A01 T01601109  RH  015%=      5-min Rain = 0
KBI1 232044Z 28015KT 16/M11 A3001 RMK A01 T01611105  RH  015%=      5-min Rain = 0
KBI1 232045Z 28015G21KT 16/M10 A3001 RMK A01 T01641099  RH  016%=      5-min Rain = 0
KBI1 232046Z 28016G23KT 17/M10 A3001 RMK A01 T01661102  RH  015%=      5-min Rain = 0
KBI1 232047Z 29019KT 17/M10 A3001 RMK A01 T01671101  RH  015%=      5-min Rain = 0
KBI1 232048Z 28021KT 17/M10 A3001 RMK A01 T01671102  RH  015%=      5-min Rain = 0
KBI1 232049Z 27018G24KT 17/M11 A3001 RMK A01 T01671107  RH  014%=      5-min Rain = 0
KBI1 232050Z 27023G28KT 17/M11 A3001 RMK A01 T01651108  RH  014%=      5-min Rain = 0
KBI1 232051Z 28021G27KT 16/M12 A3001 RMK A01 T01611121  RH  013%=      5-min Rain = 0
KBI1 232052Z 28020G26KT 16/M12 A3001 RMK A01 T01621115  RH  014%=      5-min Rain = 0
KBI1 232053Z 29022KT 16/M12 A3001 RMK A01 T01631115  RH  014%=      5-min Rain = 0
KBI1 232054Z 30020KT 16/M11 A3001 RMK A01 T01631110  RH  014%=      5-min Rain = 0
KBI1 232055Z 28022KT 16/M11 A3001 RMK A01 T01641111  RH  014%=      5-min Rain = 0
KBI1 232056Z 29027G35KT 16/M11 A3001 RMK A01 T01621114  RH  014%=      5-min Rain = 0
KBI1 232057Z 28025KT 16/M12 A3001 RMK A01 T01611117  RH  014%=      5-min Rain = 0
KBI1 232058Z 28021G27KT 16/M12 A3001 RMK A01 T01601116  RH  014%=      5-min Rain = 0
KBI1 232059Z 28020G25KT 16/M11 A3001 RMK A01 T01611112  RH  014%=      5-min Rain = 0
KBI1 232100Z 28020KT 16/M11 A3001 RMK A01 T01621112  RH  014%=      5-min Rain = 0
KBI1 232101Z 27020KT 16/M12 A3001 RMK A01 T01601118  RH  014%=      5-min Rain = 0
KBI1 232102Z 27017KT 16/M12 A3001 RMK A01 T01601116  RH  014%=      5-min Rain = 0
KBI1 232103Z 29020KT 16/M11 A3002 RMK A01 T01621108  RH  015%=      5-min Rain = 0
KBI1 232104Z 29020KT 16/M11 A3001 RMK A01 T01641108  RH  014%=      5-min Rain = 0
KBI1 232105Z 29018KT 17/M11 A3002 RMK A01 T01651106  RH  015%=      5-min Rain = 0
KBI1 232106Z 29023G29KT 17/M11 A3001 RMK A01 T01651108  RH  014%=      5-min Rain = 0
KBI1 232107Z 30024G29KT 16/M11 A3002 RMK A01 T01641108  RH  014%=      5-min Rain = 0
KBI1 232108Z 29026KT 16/M11 A3002 RMK A01 T01641112  RH  014%=      5-min Rain = 0
KBI1 232109Z 28024KT 16/M12 A3002 RMK A01 T01621119  RH  013%=      5-min Rain = 0
KBI1 232110Z 28018G26KT 16/M13 A3002 RMK A01 T01591127  RH  013%=      5-min Rain = 0
KBI1 232111Z 28022KT 16/M12 A3002 RMK A01 T01591123  RH  013%=      5-min Rain = 0
KBI1 232112Z 29018KT 16/M12 A3002 RMK A01 T01601115  RH  014%=      5-min Rain = 0
KBI1 232113Z 29019G24KT 17/M10 A3002 RMK A01 T01651101  RH  015%=      5-min Rain = 0
KBI1 232114Z 29019KT 17/M11 A3002 RMK A01 T01661107  RH  014%=      5-min Rain = 0
KBI1 232115Z 29020KT 16/M11 A3002 RMK A01 T01641112  RH  014%=      5-min Rain = 0
KBI1 232116Z 29023KT 16/M11 A3001 RMK A01 T01631110  RH  014%=      5-min Rain = 0
KBI1 232117Z 29025KT 16/M11 A3001 RMK A01 T01631108  RH  015%=      5-min Rain = 0
KBI1 232118Z 29022KT 16/M11 A3002 RMK A01 T01621114  RH  014%=      5-min Rain = 0
KBI1 232119Z 29021KT 16/M11 A3002 RMK A01 T01611107  RH  015%=      5-min Rain = 0
KBI1 232120Z 28022KT 16/M10 A3002 RMK A01 T01641104  RH  015%=      5-min Rain = 0
KBI1 232121Z 30026KT 17/M11 A3002 RMK A01 T01651109  RH  014%=      5-min Rain = 0
KBI1 232122Z 29019KT 16/M11 A3002 RMK A01 T01621110  RH  014%=      5-min Rain = 0
KBI1 232123Z 30021KT 16/M10 A3002 RMK A01 T01631104  RH  015%=      5-min Rain = 0
KBI1 232124Z 29023G28KT 17/M11 A3002 RMK A01 T01651109  RH  014%=      5-min Rain = 0
KBI1 232125Z 29024G30KT 16/M11 A3002 RMK A01 T01641108  RH  014%=      5-min Rain = 0
KBI1 232126Z 28021KT 16/M12 A3002 RMK A01 T01601115  RH  014%=      5-min Rain = 0
KBI1 232127Z 28019KT 16/M11 A3002 RMK A01 T01591113  RH  014%=      5-min Rain = 0
KBI1 232128Z 27016G21KT 16/M11 A3002 RMK A01 T01601108  RH  015%=      5-min Rain = 0
KBI1 232129Z 28018G24KT 16/M11 A3002 RMK A01 T01611107  RH  015%=      5-min Rain = 0
KBI1 232130Z 29020G25KT 16/M11 A3002 RMK A01 T01621107  RH  015%=      5-min Rain = 0
KBI1 232131Z 29020G27KT 16/M10 A3002 RMK A01 T01631103  RH  015%=      5-min Rain = 0
KBI1 232132Z 30022KT 16/M10 A3002 RMK A01 T01641102  RH  015%=      5-min Rain = 0
KBI1 232133Z 29019KT 16/M10 A3003 RMK A01 T01631103  RH  015%=      5-min Rain = 0
KBI1 232134Z 29021KT 16/M10 A3002 RMK A01 T01631103  RH  015%=      5-min Rain = 0
KBI1 232135Z 30019G24KT 16/M10 A3002 RMK A01 T01631104  RH  015%=      5-min Rain = 0
KBI1 232136Z 30021KT 16/M10 A3002 RMK A01 T01621104  RH  015%=      5-min Rain = 0
KBI1 232137Z 29018G25KT 16/M10 A3002 RMK A01 T01611103  RH  015%=      5-min Rain = 0
KBI1 232138Z 28016G22KT 16/M10 A3003 RMK A01 T01621096  RH  016%=      5-min Rain = 0
KBI1 232139Z 28021KT 16/M10 A3003 RMK A01 T01641098  RH  016%=      5-min Rain = 0
KBI1 232140Z 29022KT 16/M10 A3003 RMK A01 T01621101  RH  015%=      5-min Rain = 0
KBI1 232141Z 28020KT 16/M10 A3003 RMK A01 T01601102  RH  016%=      5-min Rain = 0
KBI1 232142Z 28019KT 16/M10 A3003 RMK A01 T01591101  RH  016%=      5-min Rain = 0
KBI1 232143Z 28016KT 16/M10 A3003 RMK A01 T01591099  RH  016%=      5-min Rain = 0
KBI1 232144Z 28022G27KT 16/M10 A3003 RMK A01 T01611097  RH  016%=      5-min Rain = 0
KBI1 232145Z 27020G25KT 16/M10 A3003 RMK A01 T01611103  RH  015%=      5-min Rain = 0
KBI1 232146Z 28020G25KT 16/M10 A3003 RMK A01 T01601100  RH  016%=      5-min Rain = 0
KBI1 232147Z 29020KT 16/M09 A3003 RMK A01 T01631092  RH  017%=      5-min Rain = 0
KBI1 232148Z 29021KT 16/M10 A3003 RMK A01 T01631100  RH  015%=      5-min Rain = 0
KBI1 232149Z 29019KT 16/M10 A3003 RMK A01 T01611100  RH  016%=      5-min Rain = 0
KBI1 232150Z 28020KT 16/M10 A3003 RMK A01 T01601104  RH  015%=      5-min Rain = 0
KBI1 232151Z 29020KT 16/M10 A3003 RMK A01 T01591103  RH  016%=      5-min Rain = 0
KBI1 232152Z 29019G25KT 16/M10 A3003 RMK A01 T01591098  RH  016%=      5-min Rain = 0
KBI1 232153Z 28019G24KT 16/M09 A3003 RMK A01 T01621091  RH  017%=      5-min Rain = 0
KBI1 232154Z 28018G23KT 16/M10 A3003 RMK A01 T01631097  RH  016%=      5-min Rain = 0
KBI1 232155Z 29019G24KT 16/M09 A3003 RMK A01 T01631094  RH  016%=      5-min Rain = 0
KBI1 232156Z 29020KT 16/M09 A3003 RMK A01 T01631094  RH  016%=      5-min Rain = 0
KBI1 232157Z 28017G23KT 16/M10 A3003 RMK A01 T01621099  RH  016%=      5-min Rain = 0
KBI1 232158Z 28019G27KT 16/M10 A3003 RMK A01 T01611097  RH  016%=      5-min Rain = 0
KBI1 232159Z 27020G26KT 16/M10 A3003 RMK A01 T01611101  RH  016%=      5-min Rain = 0
KBI1 232200Z 28018G23KT 16/M10 A3003 RMK A01 T01611098  RH  016%=      5-min Rain = 0
KBI1 232201Z 29021G26KT 16/M10 A3003 RMK A01 T01611099  RH  016%=      5-min Rain = 0
KBI1 232202Z 29019KT 16/M10 A3003 RMK A01 T01611102  RH  015%=      5-min Rain = 0
KBI1 232203Z 28016KT 16/M10 A3003 RMK A01 T01591100  RH  016%=      5-min Rain = 0
KBI1 232204Z 28017KT 16/M10 A3003 RMK A01 T01591100  RH  016%=      5-min Rain = 0
KBI1 232205Z 27023KT 16/M10 A3003 RMK A01 T01601098  RH  016%=      5-min Rain = 0
KBI1 232206Z 28020KT 16/M10 A3003 RMK A01 T01601102  RH  016%=      5-min Rain = 0
KBI1 232207Z 28018KT 16/M10 A3003 RMK A01 T01591103  RH  016%=      5-min Rain = 0
KBI1 232208Z 28016KT 16/M10 A3003 RMK A01 T01591101  RH  016%=      5-min Rain = 0
KBI1 232209Z 27015KT 16/M09 A3003 RMK A01 T01601094  RH  017%=      5-min Rain = 0
KBI1 232210Z 27015G20KT 16/M09 A3003 RMK A01 T01621093  RH  016%=      5-min Rain = 0
KBI1 232211Z 27020G25KT 16/M10 A3003 RMK A01 T01631097  RH  016%=      5-min Rain = 0
KBI1 232212Z 27019KT 16/M10 A3003 RMK A01 T01621102  RH  015%=      5-min Rain = 0
KBI1 232213Z 27019KT 16/M10 A3003 RMK A01 T01621103  RH  015%=      5-min Rain = 0
KBI1 232214Z 27018KT 16/M11 A3003 RMK A01 T01601106  RH  015%=      5-min Rain = 0
KBI1 232215Z 27016KT 16/M10 A3003 RMK A01 T01591104  RH  015%=      5-min Rain = 0
KBI1 232216Z 27017KT 16/M11 A3003 RMK A01 T01601105  RH  015%=      5-min Rain = 0
KBI1 232217Z 28014KT 16/M10 A3003 RMK A01 T01591102  RH  016%=      5-min Rain = 0
KBI1 232218Z 27015KT 16/M10 A3003 RMK A01 T01601101  RH  016%=      5-min Rain = 0
KBI1 232219Z 27020G26KT 16/M10 A3003 RMK A01 T01611100  RH  016%=      5-min Rain = 0
KBI1 232220Z 29020G25KT 16/M10 A3003 RMK A01 T01621098  RH  016%=      5-min Rain = 0
KBI1 232221Z 29019KT 16/M10 A3003 RMK A01 T01621100  RH  016%=      5-min Rain = 0
KBI1 232222Z 28020G26KT 16/M10 A3003 RMK A01 T01631097  RH  016%=      5-min Rain = 0
KBI1 232223Z 28019G24KT 16/M10 A3003 RMK A01 T01621102  RH  015%=      5-min Rain = 0
KBI1 232224Z 28021KT 16/M10 A3003 RMK A01 T01611102  RH  015%=      5-min Rain = 0
KBI1 232225Z 29021KT 16/M11 A3003 RMK A01 T01611107  RH  015%=      5-min Rain = 0
KBI1 232226Z 29020KT 16/M11 A3003 RMK A01 T01591107  RH  015%=      5-min Rain = 0
KBI1 232227Z 29020G27KT 16/M10 A3003 RMK A01 T01591104  RH  015%=      5-min Rain = 0
KBI1 232228Z 29024KT 16/M10 A3003 RMK A01 T01601102  RH  016%=      5-min Rain = 0
KBI1 232229Z 29021G26KT 16/M11 A3003 RMK A01 T01601106  RH  015%=      5-min Rain = 0
KBI1 232230Z 29020KT 16/M11 A3004 RMK A01 T01581105  RH  015%=      5-min Rain = 0
KBI1 232231Z 29017G22KT 16/M10 A3004 RMK A01 T01591101  RH  016%=      5-min Rain = 0
KBI1 232232Z 29018KT 16/M10 A3004 RMK A01 T01601101  RH  016%=      5-min Rain = 0
KBI1 232233Z 28018KT 16/M10 A3004 RMK A01 T01611104  RH  015%=      5-min Rain = 0
KBI1 232234Z 28017G23KT 16/M10 A3004 RMK A01 T01611104  RH  015%=      5-min Rain = 0
KBI1 232235Z 28021KT 16/M10 A3004 RMK A01 T01611102  RH  015%=      5-min Rain = 0
KBI1 232236Z 29020KT 16/M11 A3004 RMK A01 T01611107  RH  015%=      5-min Rain = 0
KBI1 232237Z 28020KT 16/M11 A3003 RMK A01 T01601106  RH  015%=      5-min Rain = 0
KBI1 232238Z 28017KT 16/M11 A3003 RMK A01 T01601107  RH  015%=      5-min Rain = 0
KBI1 232239Z 27018KT 16/M11 A3003 RMK A01 T01601109  RH  015%=      5-min Rain = 0
KBI1 232240Z 27018KT 16/M11 A3003 RMK A01 T01591112  RH  014%=      5-min Rain = 0
KBI1 232241Z 28017KT 16/M11 A3003 RMK A01 T01591107  RH  015%=      5-min Rain = 0
KBI1 232242Z 28017KT 16/M11 A3003 RMK A01 T01591106  RH  015%=      5-min Rain = 0
KBI1 232243Z 28015KT 16/M10 A3004 RMK A01 T01581104  RH  015%=      5-min Rain = 0
KBI1 232244Z 28014KT 16/M10 A3004 RMK A01 T01591102  RH  016%=      5-min Rain = 0
KBI1 232245Z 29016KT 16/M10 A3004 RMK A01 T01601102  RH  016%=      5-min Rain = 0
KBI1 232246Z 29016G22KT 16/M10 A3004 RMK A01 T01601100  RH  016%=      5-min Rain = 0
KBI1 232247Z 29018G23KT 16/M10 A3004 RMK A01 T01601101  RH  016%=      5-min Rain = 0
KBI1 232248Z 29017KT 16/M09 A3004 RMK A01 T01611094  RH  016%=      5-min Rain = 0
KBI1 232249Z 29020KT 16/M10 A3004 RMK A01 T01611103  RH  015%=      5-min Rain = 0
KBI1 232250Z 29020KT 16/M10 A3004 RMK A01 T01601103  RH  015%=      5-min Rain = 0
KBI1 232251Z 29020KT 16/M11 A3004 RMK A01 T01601106  RH  015%=      5-min Rain = 0
KBI1 232252Z 30020KT 16/M11 A3004 RMK A01 T01591108  RH  015%=      5-min Rain = 0
KBI1 232253Z 29019KT 16/M11 A3004 RMK A01 T01591106  RH  015%=      5-min Rain = 0
KBI1 232254Z 29017KT 16/M10 A3004 RMK A01 T01591103  RH  015%=      5-min Rain = 0
KBI1 232255Z 29018KT 16/M10 A3004 RMK A01 T01601101  RH  016%=      5-min Rain = 0
KBI1 232256Z 29019KT 16/M10 A3004 RMK A01 T01601104  RH  015%=      5-min Rain = 0
KBI1 232257Z 29018KT 16/M10 A3004 RMK A01 T01591104  RH  015%=      5-min Rain = 0
KBI1 232258Z 29016G21KT 16/M10 A3004 RMK A01 T01591102  RH  016%=      5-min Rain = 0
KBI1 232259Z 30019KT 16/M10 A3004 RMK A01 T01591103  RH  016%=      5-min Rain = 0
KBI1 232300Z 29017KT 16/M10 A3004 RMK A01 T01591101  RH  016%=      5-min Rain = 0
KBI1 232301Z 28017KT 16/M10 A3004 RMK A01 T01591104  RH  015%=      5-min Rain = 0
KBI1 232302Z 28017KT 16/M11 A3004 RMK A01 T01591105  RH  015%=      5-min Rain = 0
KBI1 232303Z 28017KT 16/M10 A3004 RMK A01 T01591104  RH  015%=      5-min Rain = 0
KBI1 232304Z 28014KT 16/M11 A3004 RMK A01 T01591108  RH  015%=      5-min Rain = 0
KBI1 232305Z 29015KT 16/M11 A3004 RMK A01 T01581107  RH  015%=      5-min Rain = 0
KBI1 232306Z 28014KT 16/M11 A3004 RMK A01 T01581106  RH  015%=      5-min Rain = 0
KBI1 232307Z 28016KT 16/M11 A3004 RMK A01 T01581105  RH  015%=      5-min Rain = 0
KBI1 232308Z 29016G21KT 16/M11 A3004 RMK A01 T01581106  RH  015%=      5-min Rain = 0
KBI1 232309Z 29020KT 16/M10 A3004 RMK A01 T01591103  RH  016%=      5-min Rain = 0
KBI1 232310Z 29020KT 16/M11 A3004 RMK A01 T01591107  RH  015%=      5-min Rain = 0
KBI1 232311Z 29016KT 16/M11 A3005 RMK A01 T01571108  RH  015%=      5-min Rain = 0
KBI1 232312Z 30015G20KT 16/M10 A3004 RMK A01 T01571104  RH  016%=      5-min Rain = 0
KBI1 232313Z 29016KT 16/M11 A3004 RMK A01 T01571106  RH  015%=      5-min Rain = 0
KBI1 232314Z 28014KT 16/M10 A3004 RMK A01 T01571103  RH  016%=      5-min Rain = 0
KBI1 232315Z 27013KT 16/M10 A3004 RMK A01 T01581103  RH  016%=      5-min Rain = 0
KBI1 232316Z 27015KT 16/M10 A3004 RMK A01 T01581104  RH  015%=      5-min Rain = 0
KBI1 232317Z 28013KT 16/M11 A3004 RMK A01 T01581106  RH  015%=      5-min Rain = 0
KBI1 232318Z 28012KT 16/M10 A3005 RMK A01 T01571104  RH  016%=      5-min Rain = 0
KBI1 232319Z 28015KT 16/M10 A3005 RMK A01 T01581103  RH  016%=      5-min Rain = 0
KBI1 232320Z 29018KT 16/M11 A3004 RMK A01 T01581105  RH  015%=      5-min Rain = 0
KBI1 232321Z 28015G20KT 16/M10 A3005 RMK A01 T01581102  RH  016%=      5-min Rain = 0
KBI1 232322Z 28016G21KT 16/M10 A3005 RMK A01 T01581102  RH  016%=      5-min Rain = 0
KBI1 232323Z 29018KT 16/M11 A3005 RMK A01 T01581105  RH  015%=      5-min Rain = 0
KBI1 232324Z 29019KT 16/M11 A3005 RMK A01 T01571106  RH  015%=      5-min Rain = 0
KBI1 232325Z 29015KT 16/M11 A3005 RMK A01 T01571105  RH  016%=      5-min Rain = 0
KBI1 232326Z 28018KT 16/M10 A3005 RMK A01 T01571104  RH  016%=      5-min Rain = 0
KBI1 232327Z 28018KT 16/M11 A3005 RMK A01 T01571105  RH  016%=      5-min Rain = 0
KBI1 232328Z 28016G21KT 16/M10 A3005 RMK A01 T01571104  RH  016%=      5-min Rain = 0
KBI1 232329Z 28016KT 16/M11 A3005 RMK A01 T01561105  RH  015%=      5-min Rain = 0
KBI1 232330Z 28017KT 16/M11 A3005 RMK A01 T01561108  RH  015%=      5-min Rain = 0
KBI1 232331Z 27015KT 16/M11 A3005 RMK A01 T01561109  RH  015%=      5-min Rain = 0
KBI1 232332Z 27013KT 16/M11 A3005 RMK A01 T01561105  RH  016%=      5-min Rain = 0
KBI1 232333Z 27013KT 16/M11 A3005 RMK A01 T01561107  RH  015%=      5-min Rain = 0
KBI1 232334Z 28016KT 16/M11 A3005 RMK A01 T01561109  RH  015%=      5-min Rain = 0
KBI1 232335Z 29017KT 16/M11 A3005 RMK A01 T01561110  RH  015%=      5-min Rain = 0
KBI1 232336Z 28016G21KT 16/M11 A3005 RMK A01 T01561108  RH  015%=      5-min Rain = 0
KBI1 232337Z 29016KT 16/M11 A3005 RMK A01 T01551106  RH  015%=      5-min Rain = 0
KBI1 232338Z 29019KT 16/M11 A3005 RMK A01 T01551106  RH  016%=      5-min Rain = 0
KBI1 232339Z 29017G22KT 16/M11 A3005 RMK A01 T01551107  RH  015%=      5-min Rain = 0
KBI1 232340Z 29018KT 15/M11 A3005 RMK A01 T01541107  RH  016%=      5-min Rain = 0
KBI1 232341Z 29018KT 15/M11 A3005 RMK A01 T01541110  RH  015%=      5-min Rain = 0
KBI1 232342Z 29017KT 15/M11 A3005 RMK A01 T01531110  RH  015%=      5-min Rain = 0
KBI1 232343Z 29016KT 15/M11 A3005 RMK A01 T01531108  RH  015%=      5-min Rain = 0
KBI1 232344Z 29015KT 15/M11 A3005 RMK A01 T01541109  RH  015%=      5-min Rain = 0
KBI1 232345Z 29015KT 15/M11 A3005 RMK A01 T01531110  RH  015%=      5-min Rain = 0
KBI1 232346Z 28015KT 15/M11 A3005 RMK A01 T01531107  RH  016%=      5-min Rain = 0
KBI1 232347Z 29016KT 15/M11 A3005 RMK A01 T01531109  RH  015%=      5-min Rain = 0
KBI1 232348Z 29015KT 15/M11 A3005 RMK A01 T01521109  RH  015%=      5-min Rain = 0
KBI1 232349Z 29016KT 15/M11 A3005 RMK A01 T01521108  RH  016%=      5-min Rain = 0
KBI1 232350Z 29015KT 15/M11 A3005 RMK A01 T01521106  RH  016%=      5-min Rain = 0
KBI1 232351Z 29014KT 15/M11 A3005 RMK A01 T01511105  RH  016%=      5-min Rain = 0
KBI1 232352Z 29017KT 15/M11 A3005 RMK A01 T01511106  RH  016%=      5-min Rain = 0
KBI1 232353Z 29015KT 15/M11 A3005 RMK A01 T01511109  RH  016%=      5-min Rain = 0
KBI1 232354Z 29012KT 15/M11 A3005 RMK A01 T01501106  RH  016%=      5-min Rain = 0
KBI1 232355Z 28013KT 15/M11 A3005 RMK A01 T01501107  RH  016%=      5-min Rain = 0
KBI1 232356Z 28014G19KT 15/M11 A3005 RMK A01 T01501106  RH  016%=      5-min Rain = 0
KBI1 232357Z 28015KT 15/M11 A3005 RMK A01 T01501109  RH  016%=      5-min Rain = 0
KBI1 232358Z 28014KT 15/M11 A3005 RMK A01 T01491110  RH  016%=      5-min Rain = 0
KBI1 232359Z 28014G19KT 15/M11 A3005 RMK A01 T01491110  RH  016%=      5-min Rain = 0
KBI1 240000Z 28015KT 15/M11 A3005 RMK A01 T01491111  RH  016%=      5-min Rain = 0
KBI1 240001Z 28012KT 15/M11 A3005 RMK A01 T01491109  RH  016%=      5-min Rain = 0
KBI1 240002Z 28012KT 15/M11 A3005 RMK A01 T01491107  RH  016%=      5-min Rain = 0
KBI1 240003Z 28013KT 15/M11 A3005 RMK A01 T01491106  RH  016%=      5-min Rain = 0
KBI1 240004Z 28012KT 15/M11 A3005 RMK A01 T01481107  RH  016%=      5-min Rain = 0
KBI1 240005Z 28010KT 15/M11 A3005 RMK A01 T01481105  RH  016%=      5-min Rain = 0
KBI1 240006Z 28011KT 15/M10 A3005 RMK A01 T01471103  RH  017%=      5-min Rain = 0
KBI1 240007Z 28011KT 15/M10 A3005 RMK A01 T01471104  RH  017%=      5-min Rain = 0
KBI1 240008Z 28014G19KT 15/M11 A3005 RMK A01 T01471105  RH  017%=      5-min Rain = 0
KBI1 240009Z 29014KT 15/M11 A3005 RMK A01 T01461108  RH  016%=      5-min Rain = 0
KBI1 240010Z 28013KT 15/M11 A3006 RMK A01 T01461107  RH  016%=      5-min Rain = 0
KBI1 240011Z 29013KT 15/M11 A3006 RMK A01 T01461106  RH  016%=      5-min Rain = 0
KBI1 240012Z 29012KT 15/M11 A3006 RMK A01 T01461107  RH  016%=      5-min Rain = 0
KBI1 240013Z 29012KT 15/M11 A3006 RMK A01 T01451107  RH  016%=      5-min Rain = 0
KBI1 240014Z 29011KT 14/M10 A3006 RMK A01 T01441104  RH  017%=      5-min Rain = 0
KBI1 240015Z 28010KT 14/M10 A3006 RMK A01 T01431104  RH  017%=      5-min Rain = 0
KBI1 240016Z 28010KT 14/M10 A3006 RMK A01 T01421104  RH  017%=      5-min Rain = 0
KBI1 240017Z 28009KT 14/M10 A3006 RMK A01 T01421102  RH  017%=      5-min Rain = 0
KBI1 240018Z 28010KT 14/M10 A3006 RMK A01 T01421102  RH  017%=      5-min Rain = 0
KBI1 240019Z 28010KT 14/M10 A3006 RMK A01 T01401101  RH  018%=      5-min Rain = 0
KBI1 240020Z 28012KT 14/M10 A3006 RMK A01 T01401104  RH  017%=      5-min Rain = 0
KBI1 240021Z 28010KT 14/M11 A3006 RMK A01 T01401107  RH  017%=      5-min Rain = 0
KBI1 240022Z 28011KT 14/M11 A3006 RMK A01 T01411107  RH  017%=      5-min Rain = 0
KBI1 240023Z 28010KT 14/M11 A3006 RMK A01 T01411109  RH  017%=      5-min Rain = 0
KBI1 240024Z 29012KT 14/M11 A3006 RMK A01 T01401108  RH  017%=      5-min Rain = 0
KBI1 240025Z 28012KT 14/M11 A3006 RMK A01 T01391108  RH  017%=      5-min Rain = 0
KBI1 240026Z 28010KT 14/M11 A3006 RMK A01 T01391109  RH  017%=      5-min Rain = 0
KBI1 240027Z 29009KT 14/M11 A3006 RMK A01 T01391107  RH  017%=      5-min Rain = 0
KBI1 240028Z 29008KT 14/M11 A3007 RMK A01 T01371105  RH  018%=      5-min Rain = 0
KBI1 240029Z 29008KT 14/M10 A3007 RMK A01 T01361104  RH  018%=      5-min Rain = 0
KBI1 240030Z 29008KT 13/M10 A3007 RMK A01 T01341103  RH  018%=      5-min Rain = 0
KBI1 240031Z 29009KT 13/M10 A3007 RMK A01 T01331102  RH  019%=      5-min Rain = 0
KBI1 240032Z 29008KT 13/M10 A3007 RMK A01 T01321104  RH  018%=      5-min Rain = 0
KBI1 240033Z 29009KT 13/M10 A3007 RMK A01 T01311102  RH  019%=      5-min Rain = 0
KBI1 240034Z 29009KT 13/M10 A3007 RMK A01 T01311103  RH  019%=      5-min Rain = 0
KBI1 240035Z 29010KT 13/M10 A3007 RMK A01 T01301104  RH  019%=      5-min Rain = 0
KBI1 240036Z 29010KT 13/M10 A3007 RMK A01 T01301104  RH  019%=      5-min Rain = 0
KBI1 240037Z 28009KT 13/M11 A3007 RMK A01 T01301105  RH  018%=      5-min Rain = 0
KBI1 240038Z 28011KT 13/M11 A3007 RMK A01 T01301106  RH  018%=      5-min Rain = 0
KBI1 240039Z 28010KT 13/M11 A3007 RMK A01 T01311107  RH  018%=      5-min Rain = 0
KBI1 240040Z 28010KT 13/M11 A3007 RMK A01 T01301106  RH  018%=      5-min Rain = 0
KBI1 240041Z 28008KT 13/M11 A3007 RMK A01 T01301107  RH  018%=      5-min Rain = 0
KBI1 240042Z 28009KT 13/M11 A3007 RMK A01 T01301107  RH  018%=      5-min Rain = 0
KBI1 240043Z 28008KT 13/M11 A3007 RMK A01 T01301106  RH  018%=      5-min Rain = 0
KBI1 240044Z 28008KT 13/M11 A3007 RMK A01 T01291107  RH  018%=      5-min Rain = 0
KBI1 240045Z 28008KT 13/M11 A3007 RMK A01 T01281106  RH  018%=      5-min Rain = 0
KBI1 240046Z 28007KT 13/M11 A3008 RMK A01 T01271106  RH  019%=      5-min Rain = 0
KBI1 240047Z 28008KT 13/M11 A3008 RMK A01 T01261105  RH  019%=      5-min Rain = 0
KBI1 240048Z 28008KT 13/M11 A3008 RMK A01 T01251105  RH  019%=      5-min Rain = 0
KBI1 240049Z 28008KT 13/M11 A3008 RMK A01 T01251106  RH  019%=      5-min Rain = 0
KBI1 240050Z 28007KT 13/M11 A3008 RMK A01 T01251106  RH  019%=      5-min Rain = 0
KBI1 240051Z 28008KT 12/M11 A3008 RMK A01 T01241106  RH  019%=      5-min Rain = 0
KBI1 240052Z 28007KT 12/M11 A3008 RMK A01 T01231106  RH  019%=      5-min Rain = 0
KBI1 240053Z 28007KT 12/M11 A3008 RMK A01 T01221105  RH  019%=      5-min Rain = 0
KBI1 240054Z 27007KT 12/M11 A3008 RMK A01 T01211106  RH  019%=      5-min Rain = 0
KBI1 240055Z 27008KT 12/M11 A3008 RMK A01 T01211106  RH  019%=      5-min Rain = 0
KBI1 240056Z 27007KT 12/M11 A3008 RMK A01 T01201105  RH  020%=      5-min Rain = 0
KBI1 240057Z 27008KT 12/M10 A3008 RMK A01 T01191104  RH  020%=      5-min Rain = 0
KBI1 240058Z 27008KT 12/M11 A3008 RMK A01 T01191106  RH  020%=      5-min Rain = 0
KBI1 240059Z 27007KT 12/M11 A3008 RMK A01 T01191105  RH  020%=      5-min Rain = 0
KBI1 240100Z 26007KT 12/M11 A3008 RMK A01 T01181105  RH  020%=      5-min Rain = 0
KBI1 240101Z 27007KT 12/M10 A3008 RMK A01 T01181104  RH  020%=      5-min Rain = 0
KBI1 240102Z 27008KT 12/M10 A3008 RMK A01 T01171103  RH  020%=      5-min Rain = 0
KBI1 240103Z 26008KT 12/M10 A3008 RMK A01 T01171103  RH  020%=      5-min Rain = 0
KBI1 240104Z 27008KT 12/M10 A3008 RMK A01 T01171104  RH  020%=      5-min Rain = 0
KBI1 240105Z 27009KT 12/M10 A3008 RMK A01 T01171104  RH  020%=      5-min Rain = 0
KBI1 240106Z 27008KT 12/M10 A3008 RMK A01 T01171104  RH  020%=      5-min Rain = 0
KBI1 240107Z 27008KT 12/M10 A3008 RMK A01 T01171104  RH  020%=      5-min Rain = 0
KBI1 240108Z 27008KT 12/M11 A3008 RMK A01 T01171105  RH  020%=      5-min Rain = 0
KBI1 240109Z 27008KT 12/M11 A3008 RMK A01 T01181106  RH  020%=      5-min Rain = 0
KBI1 240110Z 27007KT 12/M11 A3008 RMK A01 T01181105  RH  020%=      5-min Rain = 0
KBI1 240111Z 27007KT 12/M10 A3008 RMK A01 T01171104  RH  020%=      5-min Rain = 0
KBI1 240112Z 27007KT 12/M10 A3008 RMK A01 T01151103  RH  021%=      5-min Rain = 0
KBI1 240113Z 27007KT 11/M10 A3008 RMK A01 T01141103  RH  021%=      5-min Rain = 0
KBI1 240114Z 27007KT 11/M10 A3008 RMK A01 T01121102  RH  021%=      5-min Rain = 0
KBI1 240115Z 27007KT 11/M10 A3008 RMK A01 T01111102  RH  021%=      5-min Rain = 0
KBI1 240116Z 26007KT 11/M10 A3008 RMK A01 T01111102  RH  021%=      5-min Rain = 0
KBI1 240117Z 27007KT 11/M10 A3008 RMK A01 T01111101  RH  022%=      5-min Rain = 0
KBI1 240118Z 26007KT 11/M10 A3008 RMK A01 T01101102  RH  022%=      5-min Rain = 0
KBI1 240119Z 26007KT 11/M10 A3008 RMK A01 T01101102  RH  022%=      5-min Rain = 0
KBI1 240120Z 26006KT 11/M10 A3008 RMK A01 T01101102  RH  022%=      5-min Rain = 0
KBI1 240121Z 25006KT 11/M10 A3008 RMK A01 T01101101  RH  022%=      5-min Rain = 0
KBI1 240122Z 26006KT 11/M10 A3008 RMK A01 T01081101  RH  022%=      5-min Rain = 0
KBI1 240123Z 26006KT 11/M10 A3009 RMK A01 T01071101  RH  022%=      5-min Rain = 0
KBI1 240124Z 26005KT 11/M10 A3009 RMK A01 T01061100  RH  022%=      5-min Rain = 0
KBI1 240125Z 25006KT 11/M10 A3009 RMK A01 T01061100  RH  022%=      5-min Rain = 0
KBI1 240126Z 25005KT 11/M10 A3009 RMK A01 T01051101  RH  022%=      5-min Rain = 0
KBI1 240127Z 25004KT 11/M10 A3009 RMK A01 T01051100  RH  023%=      5-min Rain = 0
KBI1 240128Z 24005KT 11/M10 A3009 RMK A01 T01051100  RH  023%=      5-min Rain = 0
KBI1 240129Z 24005KT 11/M10 A3009 RMK A01 T01051100  RH  023%=      5-min Rain = 0
KBI1 240130Z 24005KT 11/M10 A3009 RMK A01 T01051100  RH  023%=      5-min Rain = 0
KBI1 240131Z 24006KT 11/M10 A3009 RMK A01 T01051100  RH  023%=      5-min Rain = 0
KBI1 240132Z 24006KT 11/M10 A3009 RMK A01 T01051100  RH  023%=      5-min Rain = 0
KBI1 240133Z 24006KT 11/M10 A3009 RMK A01 T01051101  RH  022%=      5-min Rain = 0
KBI1 240134Z 24007KT 11/M10 A3009 RMK A01 T01051101  RH  022%=      5-min Rain = 0
KBI1 240135Z 24007KT 10/M10 A3009 RMK A01 T01041101  RH  022%=      5-min Rain = 0
KBI1 240136Z 24007KT 10/M10 A3009 RMK A01 T01041101  RH  023%=      5-min Rain = 0
KBI1 240137Z 24006KT 10/M10 A301 RMK A01 T01031100  RH  023%=      5-min Rain = 0
KBI1 240138Z 24006KT 10/M10 A301 RMK A01 T01021100  RH  023%=      5-min Rain = 0
KBI1 240139Z 23006KT 10/M10 A301 RMK A01 T01021100  RH  023%=      5-min Rain = 0
KBI1 240140Z 24006KT 10/M10 A301 RMK A01 T01011100  RH  023%=      5-min Rain = 0
KBI1 240141Z 24006KT 10/M10 A301 RMK A01 T01021100  RH  023%=      5-min Rain = 0
KBI1 240142Z 24006KT 10/M10 A301 RMK A01 T01011100  RH  023%=      5-min Rain = 0
KBI1 240143Z 23006KT 10/M10 A301 RMK A01 T01021099  RH  023%=      5-min Rain = 0
KBI1 240144Z 23006KT 10/M10 A301 RMK A01 T01001100  RH  023%=      5-min Rain = 0
KBI1 240145Z 23006KT 10/M10 A301 RMK A01 T01001102  RH  023%=      5-min Rain = 0
KBI1 240146Z 24006KT 10/M10 A301 RMK A01 T01011102  RH  023%=      5-min Rain = 0
KBI1 240147Z 24006KT 10/M10 A301 RMK A01 T01001100  RH  023%=      5-min Rain = 0
KBI1 240148Z 24006KT 10/M10 A3011 RMK A01 T00981101  RH  023%=      5-min Rain = 0
KBI1 240149Z 24007KT 10/M10 A3011 RMK A01 T00981099  RH  024%=      5-min Rain = 0
KBI1 240150Z 24006KT 10/M10 A3011 RMK A01 T00981099  RH  024%=      5-min Rain = 0
KBI1 240151Z 24006KT 10/M10 A3011 RMK A01 T00971098  RH  024%=      5-min Rain = 0
KBI1 240152Z 24007KT 10/M10 A3011 RMK A01 T00971098  RH  024%=      5-min Rain = 0
KBI1 240153Z 24007KT 10/M10 A3011 RMK A01 T00971098  RH  024%=      5-min Rain = 0
KBI1 240154Z 24008KT 10/M10 A3011 RMK A01 T00961098  RH  024%=      5-min Rain = 0
KBI1 240155Z 24008KT 10/M10 A3011 RMK A01 T00971099  RH  024%=      5-min Rain = 0
KBI1 240156Z 24008KT 10/M10 A3011 RMK A01 T00961099  RH  024%=      5-min Rain = 0
KBI1 240157Z 24008KT 10/M10 A3011 RMK A01 T00961098  RH  024%=      5-min Rain = 0
KBI1 240158Z 24008KT 10/M10 A3011 RMK A01 T00951098  RH  025%=      5-min Rain = 0
KBI1 240159Z 24009KT 09/M10 A3011 RMK A01 T00941097  RH  025%=      5-min Rain = 0
KBI1 240200Z 24008KT 09/M10 A3011 RMK A01 T00931097  RH  025%=      5-min Rain = 0
KBI1 240201Z 24009KT 09/M10 A3011 RMK A01 T00921097  RH  025%=      5-min Rain = 0
KBI1 240202Z 24008KT 09/M10 A3011 RMK A01 T00931096  RH  025%=      5-min Rain = 0
KBI1 240203Z 24008KT 09/M10 A3011 RMK A01 T00921096  RH  025%=      5-min Rain = 0
KBI1 240204Z 24009KT 09/M10 A3011 RMK A01 T00921097  RH  025%=      5-min Rain = 0
KBI1 240205Z 24008KT 09/M10 A3011 RMK A01 T00931096  RH  025%=      5-min Rain = 0
KBI1 240206Z 24008KT 09/M10 A3011 RMK A01 T00931096  RH  025%=      5-min Rain = 0
KBI1 240207Z 25008KT 09/M10 A3011 RMK A01 T00921097  RH  025%=      5-min Rain = 0
KBI1 240208Z 25008KT 09/M10 A3011 RMK A01 T00921097  RH  025%=      5-min Rain = 0
KBI1 240209Z 24008KT 09/M10 A3012 RMK A01 T00911097  RH  025%=      5-min Rain = 0
KBI1 240210Z 25008KT 09/M10 A3012 RMK A01 T00911096  RH  026%=      5-min Rain = 0
KBI1 240211Z 24008KT 09/M10 A3012 RMK A01 T00901096  RH  026%=      5-min Rain = 0
KBI1 240212Z 24008KT 09/M10 A3012 RMK A01 T00901096  RH  026%=      5-min Rain = 0
KBI1 240213Z 25008KT 09/M10 A3012 RMK A01 T00891096  RH  026%=      5-min Rain = 0
KBI1 240214Z 25007KT 09/M10 A3012 RMK A01 T00891095  RH  026%=      5-min Rain = 0
KBI1 240215Z 25007KT 09/M10 A3012 RMK A01 T00881095  RH  026%=      5-min Rain = 0
KBI1 240216Z 25007KT 09/M10 A3012 RMK A01 T00881095  RH  026%=      5-min Rain = 0
KBI1 240217Z 25007KT 09/M09 A3012 RMK A01 T00881094  RH  026%=      5-min Rain = 0
KBI1 240218Z 25007KT 09/M10 A3012 RMK A01 T00881095  RH  026%=      5-min Rain = 0
KBI1 240219Z 25007KT 09/M10 A3012 RMK A01 T00871095  RH  027%=      5-min Rain = 0
KBI1 240220Z 25007KT 09/M10 A3012 RMK A01 T00871095  RH  027%=      5-min Rain = 0
KBI1 240221Z 25007KT 09/M10 A3012 RMK A01 T00861095  RH  027%=      5-min Rain = 0
KBI1 240222Z 25007KT 09/M09 A3012 RMK A01 T00851094  RH  027%=      5-min Rain = 0
KBI1 240223Z 25006KT 08/M09 A3012 RMK A01 T00841094  RH  027%=      5-min Rain = 0
KBI1 240224Z 25007KT 08/M09 A3012 RMK A01 T00831093  RH  028%=      5-min Rain = 0
KBI1 240225Z 25007KT 08/M09 A3012 RMK A01 T00821093  RH  028%=      5-min Rain = 0
KBI1 240226Z 25007KT 08/M09 A3012 RMK A01 T00821092  RH  028%=      5-min Rain = 0
KBI1 240227Z 25007KT 08/M09 A3012 RMK A01 T00821092  RH  028%=      5-min Rain = 0
KBI1 240228Z 25008KT 08/M09 A3012 RMK A01 T00821092  RH  028%=      5-min Rain = 0
KBI1 240229Z 25007KT 08/M09 A3013 RMK A01 T00821092  RH  028%=      5-min Rain = 0
KBI1 240230Z 25007KT 08/M09 A3013 RMK A01 T00811091  RH  028%=      5-min Rain = 0
KBI1 240231Z 25007KT 08/M09 A3013 RMK A01 T00801092  RH  029%=      5-min Rain = 0
KBI1 240232Z 25006KT 08/M09 A3013 RMK A01 T00801092  RH  028%=      5-min Rain = 0
KBI1 240233Z 25006KT 08/M09 A3013 RMK A01 T00811092  RH  028%=      5-min Rain = 0
KBI1 240234Z 25007KT 08/M09 A3013 RMK A01 T00811091  RH  029%=      5-min Rain = 0
KBI1 240235Z 25006KT 08/M09 A3013 RMK A01 T00801091  RH  029%=      5-min Rain = 0
KBI1 240236Z 24007KT 08/M09 A3013 RMK A01 T00791091  RH  029%=      5-min Rain = 0
KBI1 240237Z 25007KT 08/M09 A3013 RMK A01 T00781091  RH  029%=      5-min Rain = 0
KBI1 240238Z 25007KT 08/M09 A3013 RMK A01 T00771091  RH  029%=      5-min Rain = 0
KBI1 240239Z 24007KT 08/M09 A3013 RMK A01 T00761091  RH  029%=      5-min Rain = 0
KBI1 240240Z 24007KT 08/M09 A3013 RMK A01 T00761090  RH  030%=      5-min Rain = 0
KBI1 240241Z 24008KT 08/M09 A3013 RMK A01 T00751090  RH  030%=      5-min Rain = 0
KBI1 240242Z 24007KT 08/M09 A3013 RMK A01 T00751090  RH  030%=      5-min Rain = 0
KBI1 240243Z 25007KT 08/M09 A3013 RMK A01 T00751090  RH  030%=      5-min Rain = 0
KBI1 240244Z 24007KT 07/M09 A3013 RMK A01 T00741090  RH  030%=      5-min Rain = 0
KBI1 240245Z 25008KT 07/M09 A3014 RMK A01 T00741090  RH  030%=      5-min Rain = 0
KBI1 240246Z 25007KT 07/M09 A3014 RMK A01 T00741089  RH  030%=      5-min Rain = 0
KBI1 240247Z 25008KT 07/M09 A3014 RMK A01 T00741090  RH  030%=      5-min Rain = 0
KBI1 240248Z 25008KT 07/M09 A3014 RMK A01 T00731089  RH  031%=      5-min Rain = 0
KBI1 240249Z 25008KT 07/M09 A3014 RMK A01 T00731089  RH  030%=      5-min Rain = 0
KBI1 240250Z 25008KT 07/M09 A3014 RMK A01 T00731089  RH  031%=      5-min Rain = 0
KBI1 240251Z 25008KT 07/M09 A3014 RMK A01 T00731089  RH  030%=      5-min Rain = 0
KBI1 240252Z 25008KT 07/M09 A3014 RMK A01 T00741089  RH  030%=      5-min Rain = 0
KBI1 240253Z 25008KT 07/M09 A3014 RMK A01 T00741088  RH  031%=      5-min Rain = 0
KBI1 240254Z 25008KT 07/M09 A3014 RMK A01 T00731089  RH  031%=      5-min Rain = 0
KBI1 240255Z 25008KT 07/M09 A3014 RMK A01 T00741089  RH  031%=      5-min Rain = 0
KBI1 240256Z 25008KT 07/M09 A3014 RMK A01 T00731088  RH  031%=      5-min Rain = 0
KBI1 240257Z 25008KT 07/M09 A3014 RMK A01 T00731089  RH  031%=      5-min Rain = 0
KBI1 240258Z 25008KT 07/M09 A3014 RMK A01 T00741089  RH  030%=      5-min Rain = 0
KBI1 240259Z 25007KT 07/M09 A3014 RMK A01 T00741088  RH  031%=      5-min Rain = 0
KBI1 240300Z 25008KT 07/M09 A3014 RMK A01 T00731088  RH  031%=      5-min Rain = 0
KBI1 240301Z 25007KT 07/M09 A3014 RMK A01 T00731088  RH  031%=      5-min Rain = 0
KBI1 240302Z 25007KT 07/M09 A3014 RMK A01 T00721088  RH  031%=      5-min Rain = 0
KBI1 240303Z 25007KT 07/M09 A3014 RMK A01 T00721088  RH  031%=      5-min Rain = 0
KBI1 240304Z 25008KT 07/M09 A3014 RMK A01 T00721088  RH  031%=      5-min Rain = 0
KBI1 240305Z 25008KT 07/M09 A3015 RMK A01 T00711087  RH  031%=      5-min Rain = 0
KBI1 240306Z 25007KT 07/M09 A3015 RMK A01 T00711088  RH  031%=      5-min Rain = 0
KBI1 240307Z 25007KT 07/M09 A3015 RMK A01 T00721088  RH  031%=      5-min Rain = 0
KBI1 240308Z 25007KT 07/M09 A3015 RMK A01 T00711087  RH  031%=      5-min Rain = 0
KBI1 240309Z 25007KT 07/M09 A3015 RMK A01 T00691087  RH  032%=      5-min Rain = 0
KBI1 240310Z 25007KT 07/M09 A3015 RMK A01 T00681086  RH  032%=      5-min Rain = 0
KBI1 240311Z 25007KT 07/M09 A3015 RMK A01 T00671086  RH  033%=      5-min Rain = 0
KBI1 240312Z 25006KT 07/M09 A3015 RMK A01 T00671086  RH  033%=      5-min Rain = 0
KBI1 240313Z 25006KT 07/M09 A3015 RMK A01 T00661086  RH  033%=      5-min Rain = 0
KBI1 240314Z 25007KT 07/M09 A3015 RMK A01 T00661085  RH  033%=      5-min Rain = 0
KBI1 240315Z 25007KT 07/M09 A3015 RMK A01 T00661086  RH  033%=      5-min Rain = 0
KBI1 240316Z 25007KT 07/M09 A3015 RMK A01 T00671086  RH  033%=      5-min Rain = 0
KBI1 240317Z 25007KT 07/M09 A3015 RMK A01 T00671086  RH  033%=      5-min Rain = 0
KBI1 240318Z 25006KT 07/M09 A3015 RMK A01 T00671086  RH  033%=      5-min Rain = 0
KBI1 240319Z 25006KT 07/M09 A3015 RMK A01 T00661086  RH  033%=      5-min Rain = 0
KBI1 240320Z 25007KT 07/M09 A3015 RMK A01 T00651086  RH  033%=      5-min Rain = 0
KBI1 240321Z 25007KT 07/M09 A3015 RMK A01 T00651086  RH  033%=      5-min Rain = 0
KBI1 240322Z 25007KT 07/M09 A3015 RMK A01 T00651086  RH  033%=      5-min Rain = 0
KBI1 240323Z 25007KT 07/M09 A3015 RMK A01 T00651086  RH  033%=      5-min Rain = 0
KBI1 240324Z 25006KT 07/M09 A3015 RMK A01 T00651085  RH  033%=      5-min Rain = 0
KBI1 240325Z 25006KT 06/M09 A3016 RMK A01 T00641086  RH  033%=      5-min Rain = 0
KBI1 240326Z 25007KT 06/M09 A3016 RMK A01 T00631085  RH  034%=      5-min Rain = 0
KBI1 240327Z 25006KT 06/M09 A3016 RMK A01 T00631085  RH  034%=      5-min Rain = 0
KBI1 240328Z 25006KT 06/M09 A3016 RMK A01 T00631085  RH  034%=      5-min Rain = 0
KBI1 240329Z 25006KT 06/M09 A3016 RMK A01 T00641085  RH  033%=      5-min Rain = 0
KBI1 240330Z 25005KT 06/M09 A3016 RMK A01 T00641085  RH  034%=      5-min Rain = 0
KBI1 240331Z 25006KT 06/M09 A3016 RMK A01 T00621085  RH  034%=      5-min Rain = 0
KBI1 240332Z 25006KT 06/M09 A3016 RMK A01 T00621085  RH  034%=      5-min Rain = 0
KBI1 240333Z 25006KT 06/M09 A3016 RMK A01 T00631085  RH  034%=      5-min Rain = 0
KBI1 240334Z 25006KT 06/M09 A3016 RMK A01 T00631085  RH  034%=      5-min Rain = 0
KBI1 240335Z 25006KT 06/M09 A3016 RMK A01 T00641085  RH  033%=      5-min Rain = 0
KBI1 240336Z 25006KT 07/M09 A3016 RMK A01 T00651086  RH  033%=      5-min Rain = 0
KBI1 240337Z 25007KT 07/M09 A3016 RMK A01 T00651085  RH  033%=      5-min Rain = 0
KBI1 240338Z 25006KT 06/M09 A3016 RMK A01 T00641086  RH  033%=      5-min Rain = 0
KBI1 240339Z 25007KT 06/M09 A3016 RMK A01 T00641086  RH  033%=      5-min Rain = 0
KBI1 240340Z 25006KT 07/M09 A3017 RMK A01 T00651085  RH  033%=      5-min Rain = 0
KBI1 240341Z 25007KT 07/M09 A3017 RMK A01 T00651085  RH  033%=      5-min Rain = 0
KBI1 240342Z 25007KT 07/M09 A3017 RMK A01 T00651086  RH  033%=      5-min Rain = 0
KBI1 240343Z 25007KT 07/M09 A3017 RMK A01 T00651086  RH  033%=      5-min Rain = 0
KBI1 240344Z 25007KT 07/M09 A3017 RMK A01 T00651086  RH  033%=      5-min Rain = 0
KBI1 240345Z 25007KT 07/M09 A3017 RMK A01 T00661086  RH  033%=      5-min Rain = 0
KBI1 240346Z 25007KT 07/M09 A3017 RMK A01 T00671086  RH  033%=      5-min Rain = 0
KBI1 240347Z 25007KT 07/M09 A3017 RMK A01 T00671086  RH  033%=      5-min Rain = 0
KBI1 240348Z 25007KT 07/M09 A3017 RMK A01 T00681085  RH  033%=      5-min Rain = 0
KBI1 240349Z 25007KT 07/M09 A3017 RMK A01 T00681086  RH  033%=      5-min Rain = 0
KBI1 240350Z 25006KT 07/M09 A3017 RMK A01 T00671087  RH  032%=      5-min Rain = 0
KBI1 240351Z 25006KT 07/M09 A3017 RMK A01 T00681086  RH  032%=      5-min Rain = 0
KBI1 240352Z 25006KT 07/M09 A3017 RMK A01 T00681087  RH  032%=      5-min Rain = 0
KBI1 240353Z 24006KT 07/M09 A3017 RMK A01 T00681087  RH  032%=      5-min Rain = 0
KBI1 240354Z 24007KT 07/M09 A3018 RMK A01 T00681086  RH  032%=      5-min Rain = 0
KBI1 240355Z 24007KT 07/M09 A3018 RMK A01 T00681086  RH  032%=      5-min Rain = 0
KBI1 240356Z 24006KT 07/M09 A3018 RMK A01 T00681086  RH  032%=      5-min Rain = 0
KBI1 240357Z 24006KT 07/M09 A3018 RMK A01 T00681085  RH  033%=      5-min Rain = 0
KBI1 240358Z 24006KT 07/M09 A3018 RMK A01 T00681085  RH  033%=      5-min Rain = 0
KBI1 240359Z 24006KT 07/M09 A3018 RMK A01 T00671085  RH  033%=      5-min Rain = 0
KBI1 240400Z 24006KT 07/M09 A3018 RMK A01 T00661085  RH  033%=      5-min Rain = 0
KBI1 240401Z 24006KT 07/M09 A3018 RMK A01 T00661085  RH  033%=      5-min Rain = 0
KBI1 240402Z 24006KT 07/M09 A3018 RMK A01 T00661085  RH  033%=      5-min Rain = 0
KBI1 240403Z 24007KT 07/M09 A3018 RMK A01 T00671085  RH  033%=      5-min Rain = 0
KBI1 240404Z 24006KT 07/M09 A3018 RMK A01 T00671085  RH  033%=      5-min Rain = 0
KBI1 240405Z 25007KT 07/M09 A3019 RMK A01 T00681085  RH  033%=      5-min Rain = 0
KBI1 240406Z 25007KT 07/M08 A3019 RMK A01 T00691084  RH  033%=      5-min Rain = 0
KBI1 240407Z 25007KT 07/M09 A3019 RMK A01 T00701085  RH  032%=      5-min Rain = 0
KBI1 240408Z 25006KT 07/M09 A3019 RMK A01 T00721085  RH  032%=      5-min Rain = 0
KBI1 240409Z 25007KT 07/M09 A3019 RMK A01 T00721085  RH  032%=      5-min Rain = 0
KBI1 240410Z 25006KT 07/M09 A3019 RMK A01 T00721085  RH  032%=      5-min Rain = 0
KBI1 240411Z 26005KT 07/M09 A3019 RMK A01 T00701085  RH  032%=      5-min Rain = 0
KBI1 240412Z 26004KT 07/M09 A3019 RMK A01 T00681085  RH  033%=      5-min Rain = 0
KBI1 240413Z 28004KT 07/M08 A3019 RMK A01 T00671084  RH  033%=      5-min Rain = 0
KBI1 240414Z 35005KT 07/M09 A3019 RMK A01 T00661085  RH  033%=      5-min Rain = 0
KBI1 240415Z 02007KT 06/M09 A302 RMK A01 T00571086  RH  035%=      5-min Rain = 0
KBI1 240416Z 01007KT 05/M08 A302 RMK A01 T00511083  RH  037%=      5-min Rain = 0
KBI1 240417Z 35006KT 05/M08 A302 RMK A01 T00501082  RH  038%=      5-min Rain = 0
KBI1 240418Z 36006KT 05/M08 A302 RMK A01 T00541081  RH  037%=      5-min Rain = 0
KBI1 240419Z 33004KT 06/M08 A302 RMK A01 T00611082  RH  035%=      5-min Rain = 0
KBI1 240420Z 34007KT 07/M08 A302 RMK A01 T00671083  RH  033%=      5-min Rain = 0
KBI1 240421Z 33006KT 07/M08 A302 RMK A01 T00701083  RH  033%=      5-min Rain = 0
KBI1 240422Z 32007KT 07/M08 A302 RMK A01 T00731084  RH  032%=      5-min Rain = 0
KBI1 240423Z 31007KT 08/M08 A302 RMK A01 T00771084  RH  031%=      5-min Rain = 0
KBI1 240424Z 33007KT 08/M08 A302 RMK A01 T00781082  RH  031%=      5-min Rain = 0
KBI1 240425Z 32006KT 08/M08 A302 RMK A01 T00751081  RH  032%=      5-min Rain = 0
KBI1 240426Z 33007KT 07/M08 A302 RMK A01 T00731081  RH  033%=      5-min Rain = 0
KBI1 240427Z 32006KT 07/M08 A302 RMK A01 T00721080  RH  033%=      5-min Rain = 0
KBI1 240428Z 34005KT 07/M08 A302 RMK A01 T00721081  RH  033%=      5-min Rain = 0
KBI1 240429Z 34004KT 07/M08 A302 RMK A01 T00721081  RH  033%=      5-min Rain = 0
KBI1 240430Z 32005KT 07/M08 A302 RMK A01 T00711081  RH  033%=      5-min Rain = 0
KBI1 240431Z 32004KT 07/M08 A302 RMK A01 T00691081  RH  033%=      5-min Rain = 0
KBI1 240432Z 32005KT 07/M08 A302 RMK A01 T00671081  RH  034%=      5-min Rain = 0
KBI1 240433Z 32005KT 07/M08 A302 RMK A01 T00661081  RH  034%=      5-min Rain = 0
KBI1 240434Z 33006KT 07/M08 A302 RMK A01 T00651081  RH  034%=      5-min Rain = 0
KBI1 240435Z 32006KT 07/M08 A302 RMK A01 T00661081  RH  034%=      5-min Rain = 0
KBI1 240436Z 31006KT 07/M08 A302 RMK A01 T00661082  RH  034%=      5-min Rain = 0
KBI1 240437Z 31006KT 07/M08 A302 RMK A01 T00681082  RH  033%=      5-min Rain = 0
KBI1 240438Z 30005KT 07/M08 A302 RMK A01 T00681082  RH  033%=      5-min Rain = 0
KBI1 240439Z 30006KT 07/M08 A302 RMK A01 T00681082  RH  034%=      5-min Rain = 0
KBI1 240440Z 29006KT 07/M08 A302 RMK A01 T00651082  RH  034%=      5-min Rain = 0
KBI1 240441Z 29006KT 06/M08 A302 RMK A01 T00641083  RH  034%=      5-min Rain = 0
KBI1 240442Z 30006KT 07/M08 A302 RMK A01 T00651082  RH  034%=      5-min Rain = 0
KBI1 240443Z 30005KT 07/M08 A302 RMK A01 T00661082  RH  034%=      5-min Rain = 0
KBI1 240444Z 31005KT 07/M08 A302 RMK A01 T00671082  RH  034%=      5-min Rain = 0
KBI1 240445Z 32004KT 07/M08 A302 RMK A01 T00681082  RH  033%=      5-min Rain = 0
KBI1 240446Z 33004KT 07/M08 A302 RMK A01 T00671081  RH  034%=      5-min Rain = 0
KBI1 240447Z 33005KT 06/M08 A302 RMK A01 T00631082  RH  035%=      5-min Rain = 0
KBI1 240448Z 32005KT 06/M08 A302 RMK A01 T00611081  RH  035%=      5-min Rain = 0
KBI1 240449Z 31006KT 06/M08 A302 RMK A01 T00591082  RH  036%=      5-min Rain = 0
KBI1 240450Z 31006KT 06/M08 A302 RMK A01 T00601081  RH  036%=      5-min Rain = 0
KBI1 240451Z 31006KT 06/M08 A302 RMK A01 T00601081  RH  035%=      5-min Rain = 0
KBI1 240452Z 30006KT 06/M08 A302 RMK A01 T00611082  RH  035%=      5-min Rain = 0
KBI1 240453Z 30006KT 06/M08 A302 RMK A01 T00631082  RH  035%=      5-min Rain = 0
KBI1 240454Z 30005KT 06/M08 A302 RMK A01 T00641081  RH  035%=      5-min Rain = 0
KBI1 240455Z 30003KT 06/M08 A302 RMK A01 T00631081  RH  035%=      5-min Rain = 0
KBI1 240456Z 30003KT 06/M08 A302 RMK A01 T00591081  RH  036%=      5-min Rain = 0
KBI1 240457Z 31003KT 06/M08 A302 RMK A01 T00571082  RH  036%=      5-min Rain = 0
KBI1 240458Z 30004KT 06/M08 A302 RMK A01 T00561081  RH  036%=      5-min Rain = 0
KBI1 240459Z 29003KT 05/M08 A302 RMK A01 T00541081  RH  037%=      5-min Rain = 0
KBI1 240500Z 29004KT 05/M08 A302 RMK A01 T00531082  RH  037%=      5-min Rain = 0
KBI1 240501Z 29004KT 05/M08 A3021 RMK A01 T00531082  RH  037%=      5-min Rain = 0
KBI1 240502Z 29005KT 05/M08 A3021 RMK A01 T00541082  RH  037%=      5-min Rain = 0
KBI1 240503Z 29004KT 06/M08 A3021 RMK A01 T00571081  RH  036%=      5-min Rain = 0
KBI1 240504Z 29005KT 06/M08 A3021 RMK A01 T00591081  RH  036%=      5-min Rain = 0
KBI1 240505Z 29005KT 06/M08 A3021 RMK A01 T00601082  RH  035%=      5-min Rain = 0
KBI1 240506Z 29005KT 06/M08 A3021 RMK A01 T00611082  RH  035%=      5-min Rain = 0
KBI1 240507Z 29005KT 06/M08 A3021 RMK A01 T00611082  RH  035%=      5-min Rain = 0
KBI1 240508Z 29005KT 06/M08 A3021 RMK A01 T00621081  RH  035%=      5-min Rain = 0
KBI1 240509Z 29006KT 06/M08 A3021 RMK A01 T00631080  RH  035%=      5-min Rain = 0
KBI1 240510Z 28007KT 06/M08 A3021 RMK A01 T00641080  RH  035%=      5-min Rain = 0
KBI1 240511Z 28007KT 07/M08 A3021 RMK A01 T00651079  RH  035%=      5-min Rain = 0
KBI1 240512Z 28007KT 07/M08 A3021 RMK A01 T00661078  RH  035%=      5-min Rain = 0
KBI1 240513Z 28007KT 07/M08 A3021 RMK A01 T00671077  RH  035%=      5-min Rain = 0
KBI1 240514Z 28007KT 07/M08 A3021 RMK A01 T00681077  RH  035%=      5-min Rain = 0
KBI1 240515Z 28007KT 07/M08 A3021 RMK A01 T00691077  RH  034%=      5-min Rain = 0
KBI1 240516Z 28007KT 07/M08 A3021 RMK A01 T00711077  RH  034%=      5-min Rain = 0
KBI1 240517Z 28008KT 07/M08 A3021 RMK A01 T00731076  RH  034%=      5-min Rain = 0
KBI1 240518Z 28008KT 07/M08 A3021 RMK A01 T00741076  RH  033%=      5-min Rain = 0
KBI1 240519Z 28008KT 08/M08 A3021 RMK A01 T00761076  RH  033%=      5-min Rain = 0
KBI1 240520Z 28008KT 08/M08 A3021 RMK A01 T00771076  RH  033%=      5-min Rain = 0
KBI1 240521Z 28008KT 08/M08 A3021 RMK A01 T00781077  RH  033%=      5-min Rain = 0
KBI1 240522Z 28008KT 08/M08 A3021 RMK A01 T00781076  RH  033%=      5-min Rain = 0
KBI1 240523Z 28008KT 08/M08 A3021 RMK A01 T00781077  RH  032%=      5-min Rain = 0
KBI1 240524Z 28008KT 08/M08 A3021 RMK A01 T00791077  RH  032%=      5-min Rain = 0
KBI1 240525Z 28007KT 08/M08 A3021 RMK A01 T00801077  RH  032%=      5-min Rain = 0
KBI1 240526Z 28008KT 08/M08 A3021 RMK A01 T00801076  RH  032%=      5-min Rain = 0
KBI1 240527Z 28008KT 08/M08 A3021 RMK A01 T00791076  RH  032%=      5-min Rain = 0
KBI1 240528Z 28008KT 08/M08 A3021 RMK A01 T00791076  RH  032%=      5-min Rain = 0
KBI1 240529Z 28007KT 08/M08 A3021 RMK A01 T00791076  RH  032%=      5-min Rain = 0
KBI1 240530Z 28007KT 08/M08 A3021 RMK A01 T00791076  RH  032%=      5-min Rain = 0
KBI1 240531Z 29006KT 08/M08 A3021 RMK A01 T00791076  RH  032%=      5-min Rain = 0
KBI1 240532Z 29006KT 08/M08 A3021 RMK A01 T00781075  RH  033%=      5-min Rain = 0
KBI1 240533Z 28007KT 07/M08 A3021 RMK A01 T00741075  RH  034%=      5-min Rain = 0
KBI1 240534Z 28007KT 07/M07 A3022 RMK A01 T00721074  RH  035%=      5-min Rain = 0
KBI1 240535Z 28007KT 07/M07 A3022 RMK A01 T00691074  RH  035%=      5-min Rain = 0
KBI1 240536Z 28007KT 07/M07 A3022 RMK A01 T00691074  RH  035%=      5-min Rain = 0
KBI1 240537Z 28007KT 07/M07 A3022 RMK A01 T00681073  RH  036%=      5-min Rain = 0
KBI1 240538Z 28007KT 07/M07 A3022 RMK A01 T00671074  RH  036%=      5-min Rain = 0
KBI1 240539Z 28007KT 07/M07 A3022 RMK A01 T00681074  RH  036%=      5-min Rain = 0
KBI1 240540Z 28007KT 07/M07 A3022 RMK A01 T00691074  RH  035%=      5-min Rain = 0
KBI1 240541Z 29007KT 07/M07 A3022 RMK A01 T00691074  RH  035%=      5-min Rain = 0
KBI1 240542Z 29007KT 07/M07 A3022 RMK A01 T00691074  RH  035%=      5-min Rain = 0
KBI1 240543Z 29007KT 07/M07 A3022 RMK A01 T00681074  RH  036%=      5-min Rain = 0
KBI1 240544Z 29007KT 07/M07 A3022 RMK A01 T00661074  RH  036%=      5-min Rain = 0
KBI1 240545Z 29007KT 07/M07 A3022 RMK A01 T00651074  RH  036%=      5-min Rain = 0
KBI1 240546Z 29007KT 06/M07 A3022 RMK A01 T00641074  RH  037%=      5-min Rain = 0
KBI1 240547Z 29007KT 06/M07 A3022 RMK A01 T00621073  RH  037%=      5-min Rain = 0
KBI1 240548Z 29007KT 06/M07 A3022 RMK A01 T00611073  RH  038%=      5-min Rain = 0
KBI1 240549Z 29007KT 06/M07 A3022 RMK A01 T00601073  RH  038%=      5-min Rain = 0
KBI1 240550Z 29007KT 06/M07 A3022 RMK A01 T00591073  RH  038%=      5-min Rain = 0
KBI1 240551Z 29007KT 06/M07 A3022 RMK A01 T00581073  RH  038%=      5-min Rain = 0
KBI1 240552Z 29007KT 06/M07 A3022 RMK A01 T00571073  RH  038%=      5-min Rain = 0
KBI1 240553Z 29007KT 06/M07 A3022 RMK A01 T00571074  RH  038%=      5-min Rain = 0
KBI1 240554Z 29006KT 06/M07 A3022 RMK A01 T00581073  RH  039%=      5-min Rain = 0
KBI1 240555Z 29006KT 06/M07 A3022 RMK A01 T00571074  RH  038%=      5-min Rain = 0
KBI1 240556Z 30006KT 06/M07 A3022 RMK A01 T00571074  RH  038%=      5-min Rain = 0
KBI1 240557Z 30006KT 06/M07 A3022 RMK A01 T00571074  RH  038%=      5-min Rain = 0
KBI1 240558Z 30006KT 06/M08 A3022 RMK A01 T00571075  RH  038%=      5-min Rain = 0
KBI1 240559Z 30006KT 06/M08 A3022 RMK A01 T00591075  RH  037%=      5-min Rain = 0

Page generated in 0.072 seconds.